Wetterdaten: Donnerstag, 16.04.2026
Datum Zeit Temp. Aussen Temp. o. S. Temp +5cm Feuchte Auss Luftdruck Regen Sonnenschein Solar Windböen Empfang
16.04.2026 00:00 15,2 °C 14,4 °C 10,6 °C 67 % 1019,6 hPa 0,0 l/m² 0 min 0 W/m² 3,2 km/h (1 Bft) 94,00 %
16.04.2026 00:02 15,2 °C 14,4 °C 10,6 °C 67 % 1019,6 hPa 0,0 l/m² 0 min 0 W/m² 9,7 km/h (2 Bft) 93,18 %
16.04.2026 00:04 15,2 °C 14,4 °C 10,6 °C 67 % 1019,5 hPa 0,0 l/m² 0 min 0 W/m² 3,2 km/h (1 Bft) 93,62 %
16.04.2026 00:08 15,2 °C 14,4 °C 10,6 °C 67 % 1019,6 hPa 0,0 l/m² 0 min 0 W/m² 6,4 km/h (2 Bft) 93,68 %
16.04.2026 00:10 15,2 °C 14,4 °C 10,6 °C 67 % 1019,5 hPa 0,0 l/m² 0 min 0 W/m² 6,4 km/h (2 Bft) 93,62 %
16.04.2026 00:12 15,2 °C 14,4 °C 10,6 °C 67 % 1019,5 hPa 0,0 l/m² 0 min 0 W/m² 3,2 km/h (1 Bft) 95,92 %
16.04.2026 00:14 15,2 °C 14,4 °C 10,6 °C 67 % 1019,5 hPa 0,0 l/m² 0 min 0 W/m² 3,2 km/h (1 Bft) 91,43 %
16.04.2026 00:16 15,2 °C 14,4 °C 10,6 °C 66 % 1019,5 hPa 0,0 l/m² 0 min 0 W/m² 3,2 km/h (1 Bft) 93,62 %
16.04.2026 00:18 15,3 °C 14,4 °C 10,6 °C 66 % 1019,6 hPa 0,0 l/m² 0 min 0 W/m² 12,9 km/h (3 Bft) 93,62 %
16.04.2026 00:20 15,3 °C 14,4 °C 11,1 °C 66 % 1019,7 hPa 0,0 l/m² 0 min 0 W/m² 3,2 km/h (1 Bft) 95,74 %
16.04.2026 00:22 15,3 °C 14,4 °C 11,1 °C 66 % 1019,7 hPa 0,0 l/m² 0 min 0 W/m² 3,2 km/h (1 Bft) 94,00 %
16.04.2026 00:24 15,3 °C 14,4 °C 11,1 °C 66 % 1019,6 hPa 0,0 l/m² 0 min 0 W/m² 3,2 km/h (1 Bft) 93,62 %
16.04.2026 00:26 15,3 °C 14,4 °C 11,1 °C 66 % 1019,7 hPa 0,0 l/m² 0 min 0 W/m² 3,2 km/h (1 Bft) 93,62 %
16.04.2026 00:28 15,3 °C 14,4 °C 11,1 °C 66 % 1019,7 hPa 0,0 l/m² 0 min 0 W/m² 3,2 km/h (1 Bft) 95,74 %
16.04.2026 00:30 15,3 °C 14,4 °C 10,6 °C 66 % 1019,7 hPa 0,0 l/m² 0 min 0 W/m² 0,0 km/h (0 Bft) 91,30 %
16.04.2026 00:32 15,3 °C 14,4 °C 10,6 °C 66 % 1019,7 hPa 0,0 l/m² 0 min 0 W/m² 0,0 km/h (0 Bft) 95,74 %
16.04.2026 00:34 15,3 °C 14,4 °C 10,6 °C 66 % 1019,7 hPa 0,0 l/m² 0 min 0 W/m² 0,0 km/h (0 Bft) 51,11 %
16.04.2026 00:36 15,3 °C 14,4 °C 10,6 °C 67 % 1019,8 hPa 0,0 l/m² 0 min 0 W/m² 3,2 km/h (1 Bft) 100,00 %
16.04.2026 00:38 15,3 °C 14,4 °C 10,6 °C 66 % 1019,8 hPa 0,0 l/m² 0 min 0 W/m² 3,2 km/h (1 Bft) 97,87 %
16.04.2026 00:40 15,3 °C 14,4 °C 10,6 °C 66 % 1019,7 hPa 0,0 l/m² 0 min 0 W/m² 0,0 km/h (0 Bft) 100,00 %
16.04.2026 00:42 15,3 °C 14,4 °C 10,6 °C 66 % 1019,8 hPa 0,0 l/m² 0 min 0 W/m² 0,0 km/h (0 Bft) 97,87 %
16.04.2026 00:44 15,3 °C 14,4 °C 10,6 °C 67 % 1019,8 hPa 0,0 l/m² 0 min 0 W/m² 3,2 km/h (1 Bft) 100,00 %
16.04.2026 00:46 15,3 °C 14,4 °C 10,6 °C 66 % 1019,7 hPa 0,0 l/m² 0 min 0 W/m² 3,2 km/h (1 Bft) 100,00 %
16.04.2026 00:48 15,3 °C 14,4 °C 10,6 °C 67 % 1019,7 hPa 0,0 l/m² 0 min 0 W/m² 0,0 km/h (0 Bft) 100,00 %
16.04.2026 00:50 15,2 °C 14,4 °C 10,6 °C 67 % 1019,7 hPa 0,0 l/m² 0 min 0 W/m² 0,0 km/h (0 Bft) 100,00 %
16.04.2026 00:52 15,2 °C 14,4 °C 10,6 °C 66 % 1019,7 hPa 0,0 l/m² 0 min 0 W/m² 0,0 km/h (0 Bft) 100,00 %
16.04.2026 00:54 15,2 °C 14,4 °C 10,6 °C 66 % 1019,7 hPa 0,0 l/m² 0 min 0 W/m² 3,2 km/h (1 Bft) 100,00 %
16.04.2026 00:56 15,2 °C 14,4 °C 10,6 °C 66 % 1019,7 hPa 0,0 l/m² 0 min 0 W/m² 0,0 km/h (0 Bft) 100,00 %
16.04.2026 00:58 15,2 °C 14,4 °C 10,6 °C 66 % 1019,7 hPa 0,0 l/m² 0 min 0 W/m² 0,0 km/h (0 Bft) 97,87 %
16.04.2026 01:00 15,2 °C 14,4 °C 10,6 °C 66 % 1019,7 hPa 0,0 l/m² 0 min 0 W/m² 3,2 km/h (1 Bft) 100,00 %
16.04.2026 01:02 15,2 °C 14,4 °C 10,6 °C 66 % 1019,6 hPa 0,0 l/m² 0 min 0 W/m² 0,0 km/h (0 Bft) 100,00 %
16.04.2026 01:04 15,2 °C 14,4 °C 10,6 °C 66 % 1019,6 hPa 0,0 l/m² 0 min 0 W/m² 3,2 km/h (1 Bft) 100,00 %
16.04.2026 01:06 15,2 °C 14,4 °C 10,6 °C 66 % 1019,7 hPa 0,0 l/m² 0 min 0 W/m² 0,0 km/h (0 Bft) 100,00 %
16.04.2026 01:08 15,1 °C 14,4 °C 10,6 °C 66 % 1019,7 hPa 0,0 l/m² 0 min 0 W/m² 0,0 km/h (0 Bft) 100,00 %
16.04.2026 01:10 15,1 °C 14,4 °C 10,6 °C 66 % 1019,7 hPa 0,0 l/m² 0 min 0 W/m² 3,2 km/h (1 Bft) 97,87 %
16.04.2026 01:12 15,1 °C 14,4 °C 10,6 °C 66 % 1019,7 hPa 0,0 l/m² 0 min 0 W/m² 3,2 km/h (1 Bft) 100,00 %
16.04.2026 01:14 15,1 °C 14,4 °C 10,6 °C 66 % 1019,7 hPa 0,0 l/m² 0 min 0 W/m² 3,2 km/h (1 Bft) 100,00 %
16.04.2026 01:16 15,1 °C 14,4 °C 10,6 °C 66 % 1019,7 hPa 0,0 l/m² 0 min 0 W/m² 3,2 km/h (1 Bft) 100,00 %
16.04.2026 01:18 15,1 °C 14,4 °C 10,6 °C 66 % 1019,7 hPa 0,0 l/m² 0 min 0 W/m² 3,2 km/h (1 Bft) 100,00 %
16.04.2026 01:20 15,1 °C 14,4 °C 10,6 °C 66 % 1019,7 hPa 0,0 l/m² 0 min 0 W/m² 3,2 km/h (1 Bft) 100,00 %
16.04.2026 01:22 15,1 °C 14,4 °C 10,6 °C 66 % 1019,7 hPa 0,0 l/m² 0 min 0 W/m² 9,7 km/h (2 Bft) 100,00 %
16.04.2026 01:24 15,1 °C 14,4 °C 10,6 °C 66 % 1019,7 hPa 0,0 l/m² 0 min 0 W/m² 9,7 km/h (2 Bft) 100,00 %
16.04.2026 01:26 15,1 °C 14,4 °C 10,6 °C 66 % 1019,7 hPa 0,0 l/m² 0 min 0 W/m² 9,7 km/h (2 Bft) 96,23 %
16.04.2026 01:28 15,1 °C 14,4 °C 10,6 °C 66 % 1019,7 hPa 0,0 l/m² 0 min 0 W/m² 6,4 km/h (2 Bft) 100,00 %
16.04.2026 01:30 15,1 °C 14,4 °C 10,6 °C 66 % 1019,7 hPa 0,0 l/m² 0 min 0 W/m² 9,7 km/h (2 Bft) 97,87 %
16.04.2026 01:32 15,1 °C 14,4 °C 10,6 °C 66 % 1019,7 hPa 0,0 l/m² 0 min 0 W/m² 6,4 km/h (2 Bft) 100,00 %
16.04.2026 01:34 15,1 °C 14,4 °C 10,6 °C 66 % 1019,7 hPa 0,0 l/m² 0 min 0 W/m² 6,4 km/h (2 Bft) 98,11 %
16.04.2026 01:36 15,1 °C 14,4 °C 10,6 °C 66 % 1019,7 hPa 0,0 l/m² 0 min 0 W/m² 6,4 km/h (2 Bft) 95,83 %
16.04.2026 01:38 15,1 °C 14,4 °C 10,6 °C 66 % 1019,7 hPa 0,0 l/m² 0 min 0 W/m² 9,7 km/h (2 Bft) 100,00 %
16.04.2026 01:40 15,1 °C 14,4 °C 10,6 °C 66 % 1019,7 hPa 0,0 l/m² 0 min 0 W/m² 6,4 km/h (2 Bft) 100,00 %
16.04.2026 01:42 15,1 °C 14,4 °C 10,6 °C 66 % 1019,7 hPa 0,0 l/m² 0 min 0 W/m² 9,7 km/h (2 Bft) 98,00 %
16.04.2026 01:44 15,1 °C 14,4 °C 10,6 °C 66 % 1019,8 hPa 0,0 l/m² 0 min 0 W/m² 3,2 km/h (1 Bft) 100,00 %
16.04.2026 01:46 15,1 °C 13,9 °C 10,6 °C 66 % 1019,7 hPa 0,0 l/m² 0 min 0 W/m² 6,4 km/h (2 Bft) 97,37 %
16.04.2026 01:48 15,1 °C 13,9 °C 10,6 °C 66 % 1019,8 hPa 0,0 l/m² 0 min 0 W/m² 3,2 km/h (1 Bft) 97,87 %
16.04.2026 01:50 15,1 °C 13,9 °C 10,6 °C 67 % 1019,8 hPa 0,0 l/m² 0 min 0 W/m² 3,2 km/h (1 Bft) 100,00 %
16.04.2026 01:52 15,1 °C 13,9 °C 10,0 °C 67 % 1019,7 hPa 0,0 l/m² 0 min 0 W/m² 3,2 km/h (1 Bft) 100,00 %
16.04.2026 01:54 15,1 °C 13,9 °C 10,0 °C 67 % 1019,7 hPa 0,0 l/m² 0 min 0 W/m² 3,2 km/h (1 Bft) 100,00 %
16.04.2026 01:56 15,1 °C 13,9 °C 10,0 °C 67 % 1019,7 hPa 0,0 l/m² 0 min 0 W/m² 6,4 km/h (2 Bft) 100,00 %
16.04.2026 01:58 15,0 °C 13,9 °C 10,0 °C 67 % 1019,7 hPa 0,0 l/m² 0 min 0 W/m² 3,2 km/h (1 Bft) 97,87 %
16.04.2026 02:00 15,0 °C 13,9 °C 10,0 °C 67 % 1019,7 hPa 0,0 l/m² 0 min 0 W/m² 6,4 km/h (2 Bft) 95,74 %
16.04.2026 02:02 14,9 °C 13,3 °C 10,0 °C 68 % 1019,7 hPa 0,0 l/m² 0 min 0 W/m² 6,4 km/h (2 Bft) 98,11 %
16.04.2026 02:04 14,9 °C 13,3 °C 10,0 °C 68 % 1019,7 hPa 0,0 l/m² 0 min 0 W/m² 6,4 km/h (2 Bft) 97,14 %
16.04.2026 02:06 14,9 °C 13,3 °C 10,0 °C 68 % 1019,7 hPa 0,0 l/m² 0 min 0 W/m² 6,4 km/h (2 Bft) 98,21 %
16.04.2026 02:08 14,8 °C 13,3 °C 10,0 °C 68 % 1019,7 hPa 0,0 l/m² 0 min 0 W/m² 6,4 km/h (2 Bft) 97,87 %
16.04.2026 02:10 14,8 °C 13,3 °C 10,0 °C 68 % 1019,7 hPa 0,0 l/m² 0 min 0 W/m² 6,4 km/h (2 Bft) 95,74 %
16.04.2026 02:16 14,7 °C 13,3 °C 9,4 °C 69 % 1019,7 hPa 0,0 l/m² 0 min 0 W/m² 6,4 km/h (2 Bft) 95,74 %
16.04.2026 02:18 14,6 °C 13,3 °C 9,4 °C 69 % 1019,7 hPa 0,0 l/m² 0 min 0 W/m² 6,4 km/h (2 Bft) 95,12 %
16.04.2026 02:20 14,6 °C 13,3 °C 9,4 °C 69 % 1019,7 hPa 0,0 l/m² 0 min 0 W/m² 3,2 km/h (1 Bft) 95,74 %
16.04.2026 02:22 14,6 °C 12,8 °C 9,4 °C 69 % 1019,7 hPa 0,0 l/m² 0 min 0 W/m² 3,2 km/h (1 Bft) 95,74 %
16.04.2026 02:24 14,5 °C 12,8 °C 9,4 °C 69 % 1019,6 hPa 0,0 l/m² 0 min 0 W/m² 3,2 km/h (1 Bft) 97,87 %
16.04.2026 02:26 14,4 °C 12,8 °C 9,4 °C 69 % 1019,6 hPa 0,0 l/m² 0 min 0 W/m² 3,2 km/h (1 Bft) 98,00 %
16.04.2026 02:28 14,4 °C 12,8 °C 9,4 °C 69 % 1019,6 hPa 0,0 l/m² 0 min 0 W/m² 6,4 km/h (2 Bft) 97,37 %
16.04.2026 02:30 14,3 °C 12,8 °C 9,4 °C 69 % 1019,6 hPa 0,0 l/m² 0 min 0 W/m² 6,4 km/h (2 Bft) 97,87 %
16.04.2026 02:32 14,3 °C 12,8 °C 9,4 °C 70 % 1019,6 hPa 0,0 l/m² 0 min 0 W/m² 6,4 km/h (2 Bft) 93,48 %
16.04.2026 02:34 14,3 °C 12,8 °C 9,4 °C 70 % 1019,6 hPa 0,0 l/m² 0 min 0 W/m² 3,2 km/h (1 Bft) 97,87 %
16.04.2026 02:36 14,3 °C 12,8 °C 9,4 °C 70 % 1019,6 hPa 0,0 l/m² 0 min 0 W/m² 3,2 km/h (1 Bft) 97,87 %
16.04.2026 02:38 14,3 °C 12,8 °C 9,4 °C 70 % 1019,6 hPa 0,0 l/m² 0 min 0 W/m² 0,0 km/h (0 Bft) 95,74 %
16.04.2026 02:40 14,3 °C 12,8 °C 8,9 °C 70 % 1019,6 hPa 0,0 l/m² 0 min 0 W/m² 3,2 km/h (1 Bft) 91,49 %
16.04.2026 02:42 14,2 °C 12,8 °C 8,9 °C 70 % 1019,6 hPa 0,0 l/m² 0 min 0 W/m² 3,2 km/h (1 Bft) 93,62 %
16.04.2026 02:44 14,2 °C 12,8 °C 8,9 °C 70 % 1019,6 hPa 0,0 l/m² 0 min 0 W/m² 6,4 km/h (2 Bft) 94,00 %
16.04.2026 02:46 14,1 °C 12,8 °C 8,9 °C 70 % 1019,6 hPa 0,0 l/m² 0 min 0 W/m² 6,4 km/h (2 Bft) 95,65 %
16.04.2026 02:48 14,1 °C 12,2 °C 8,9 °C 71 % 1019,5 hPa 0,0 l/m² 0 min 0 W/m² 12,9 km/h (3 Bft) 93,55 %
16.04.2026 02:50 14,0 °C 12,2 °C 8,9 °C 71 % 1019,5 hPa 0,0 l/m² 0 min 0 W/m² 6,4 km/h (2 Bft) 97,01 %
16.04.2026 02:52 13,9 °C 12,2 °C 8,9 °C 71 % 1019,5 hPa 0,0 l/m² 0 min 0 W/m² 6,4 km/h (2 Bft) 95,74 %
16.04.2026 02:54 13,9 °C 12,2 °C 8,9 °C 71 % 1019,5 hPa 0,0 l/m² 0 min 0 W/m² 6,4 km/h (2 Bft) 97,56 %
16.04.2026 02:56 13,9 °C 12,2 °C 8,9 °C 72 % 1019,6 hPa 0,0 l/m² 0 min 0 W/m² 3,2 km/h (1 Bft) 93,62 %
16.04.2026 02:58 13,8 °C 12,2 °C 8,9 °C 72 % 1019,5 hPa 0,0 l/m² 0 min 0 W/m² 6,4 km/h (2 Bft) 97,87 %
16.04.2026 03:00 13,8 °C 12,2 °C 8,9 °C 72 % 1019,5 hPa 0,0 l/m² 0 min 0 W/m² 3,2 km/h (1 Bft) 100,00 %
16.04.2026 03:02 13,7 °C 12,2 °C 8,9 °C 72 % 1019,5 hPa 0,0 l/m² 0 min 0 W/m² 6,4 km/h (2 Bft) 96,36 %
16.04.2026 03:04 13,7 °C 12,2 °C 8,9 °C 72 % 1019,5 hPa 0,0 l/m² 0 min 0 W/m² 6,4 km/h (2 Bft) 98,00 %
16.04.2026 03:06 13,7 °C 12,2 °C 8,9 °C 72 % 1019,5 hPa 0,0 l/m² 0 min 0 W/m² 9,7 km/h (2 Bft) 97,87 %
16.04.2026 03:08 13,6 °C 12,2 °C 8,9 °C 73 % 1019,5 hPa 0,0 l/m² 0 min 0 W/m² 9,7 km/h (2 Bft) 98,00 %
16.04.2026 03:10 13,6 °C 12,2 °C 8,9 °C 73 % 1019,5 hPa 0,0 l/m² 0 min 0 W/m² 9,7 km/h (2 Bft) 97,87 %
16.04.2026 03:12 13,6 °C 12,2 °C 8,9 °C 73 % 1019,5 hPa 0,0 l/m² 0 min 0 W/m² 6,4 km/h (2 Bft) 95,74 %
16.04.2026 03:14 13,6 °C 12,2 °C 8,9 °C 73 % 1019,5 hPa 0,0 l/m² 0 min 0 W/m² 6,4 km/h (2 Bft) 95,74 %
16.04.2026 03:16 13,5 °C 12,2 °C 8,9 °C 73 % 1019,5 hPa 0,0 l/m² 0 min 0 W/m² 3,2 km/h (1 Bft) 97,37 %
16.04.2026 03:18 13,5 °C 12,2 °C 8,9 °C 73 % 1019,5 hPa 0,0 l/m² 0 min 0 W/m² 0,0 km/h (0 Bft) 100,00 %
16.04.2026 03:20 13,4 °C 12,2 °C 8,3 °C 73 % 1019,5 hPa 0,0 l/m² 0 min 0 W/m² 3,2 km/h (1 Bft) 95,74 %
16.04.2026 03:22 13,4 °C 12,2 °C 8,3 °C 73 % 1019,5 hPa 0,0 l/m² 0 min 0 W/m² 3,2 km/h (1 Bft) 97,87 %
16.04.2026 03:24 13,4 °C 12,2 °C 8,3 °C 73 % 1019,5 hPa 0,0 l/m² 0 min 0 W/m² 0,0 km/h (0 Bft) 98,00 %
16.04.2026 03:26 13,4 °C 11,7 °C 8,3 °C 73 % 1019,5 hPa 0,0 l/m² 0 min 0 W/m² 0,0 km/h (0 Bft) 97,78 %
16.04.2026 03:28 13,3 °C 11,7 °C 8,3 °C 73 % 1019,5 hPa 0,0 l/m² 0 min 0 W/m² 0,0 km/h (0 Bft) 100,00 %
16.04.2026 03:30 13,3 °C 11,7 °C 7,8 °C 73 % 1019,5 hPa 0,0 l/m² 0 min 0 W/m² 0,0 km/h (0 Bft) 100,00 %
16.04.2026 03:32 13,3 °C 11,7 °C 7,8 °C 74 % 1019,5 hPa 0,0 l/m² 0 min 0 W/m² 0,0 km/h (0 Bft) 100,00 %
16.04.2026 03:34 13,3 °C 11,7 °C 7,8 °C 74 % 1019,5 hPa 0,0 l/m² 0 min 0 W/m² 6,4 km/h (2 Bft) 100,00 %
16.04.2026 03:36 13,2 °C 11,7 °C 7,8 °C 74 % 1019,5 hPa 0,0 l/m² 0 min 0 W/m² 0,0 km/h (0 Bft) 100,00 %
16.04.2026 03:38 13,2 °C 11,7 °C 7,8 °C 74 % 1019,5 hPa 0,0 l/m² 0 min 0 W/m² 0,0 km/h (0 Bft) 100,00 %
16.04.2026 03:40 13,2 °C 11,7 °C 7,8 °C 74 % 1019,5 hPa 0,0 l/m² 0 min 0 W/m² 3,2 km/h (1 Bft) 98,00 %
16.04.2026 03:42 13,2 °C 11,7 °C 7,8 °C 74 % 1019,5 hPa 0,0 l/m² 0 min 0 W/m² 0,0 km/h (0 Bft) 100,00 %
16.04.2026 03:44 13,1 °C 11,7 °C 7,8 °C 74 % 1019,5 hPa 0,0 l/m² 0 min 0 W/m² 0,0 km/h (0 Bft) 96,00 %
16.04.2026 03:46 13,1 °C 11,7 °C 7,8 °C 74 % 1019,5 hPa 0,0 l/m² 0 min 0 W/m² 0,0 km/h (0 Bft) 97,87 %
16.04.2026 03:48 13,1 °C 11,7 °C 7,8 °C 74 % 1019,5 hPa 0,0 l/m² 0 min 0 W/m² 0,0 km/h (0 Bft) 97,87 %
16.04.2026 03:50 13,1 °C 11,7 °C 7,8 °C 75 % 1019,5 hPa 0,0 l/m² 0 min 0 W/m² 3,2 km/h (1 Bft) 93,48 %
16.04.2026 03:52 13,0 °C 11,7 °C 7,8 °C 75 % 1019,5 hPa 0,0 l/m² 0 min 0 W/m² 0,0 km/h (0 Bft) 98,00 %
16.04.2026 03:54 13,0 °C 11,7 °C 7,8 °C 75 % 1019,5 hPa 0,0 l/m² 0 min 0 W/m² 0,0 km/h (0 Bft) 97,14 %
16.04.2026 03:56 13,0 °C 11,7 °C 7,8 °C 75 % 1019,6 hPa 0,0 l/m² 0 min 0 W/m² 0,0 km/h (0 Bft) 98,00 %
16.04.2026 03:58 12,9 °C 11,7 °C 7,8 °C 75 % 1019,6 hPa 0,0 l/m² 0 min 0 W/m² 0,0 km/h (0 Bft) 97,87 %
16.04.2026 04:00 12,9 °C 11,7 °C 7,8 °C 75 % 1019,6 hPa 0,0 l/m² 0 min 0 W/m² 0,0 km/h (0 Bft) 98,00 %
16.04.2026 04:02 12,9 °C 11,7 °C 7,2 °C 75 % 1019,6 hPa 0,0 l/m² 0 min 0 W/m² 0,0 km/h (0 Bft) 97,87 %
16.04.2026 04:04 12,9 °C 11,7 °C 7,8 °C 75 % 1019,6 hPa 0,0 l/m² 0 min 0 W/m² 3,2 km/h (1 Bft) 98,11 %
16.04.2026 04:06 12,9 °C 11,7 °C 7,8 °C 75 % 1019,6 hPa 0,0 l/m² 0 min 0 W/m² 0,0 km/h (0 Bft) 97,87 %
16.04.2026 04:08 12,8 °C 11,7 °C 7,8 °C 75 % 1019,6 hPa 0,0 l/m² 0 min 0 W/m² 3,2 km/h (1 Bft) 97,87 %
16.04.2026 04:10 12,8 °C 11,7 °C 7,8 °C 76 % 1019,6 hPa 0,0 l/m² 0 min 0 W/m² 6,4 km/h (2 Bft) 97,87 %
16.04.2026 04:12 12,8 °C 11,7 °C 7,8 °C 76 % 1019,7 hPa 0,0 l/m² 0 min 0 W/m² 3,2 km/h (1 Bft) 97,87 %
16.04.2026 04:14 12,8 °C 11,7 °C 7,8 °C 76 % 1019,7 hPa 0,0 l/m² 0 min 0 W/m² 0,0 km/h (0 Bft) 100,00 %
16.04.2026 04:16 12,8 °C 11,7 °C 7,8 °C 76 % 1019,7 hPa 0,0 l/m² 0 min 0 W/m² 0,0 km/h (0 Bft) 100,00 %
16.04.2026 04:18 12,8 °C 11,7 °C 7,8 °C 76 % 1019,7 hPa 0,0 l/m² 0 min 0 W/m² 0,0 km/h (0 Bft) 97,87 %
16.04.2026 04:20 12,7 °C 11,7 °C 7,8 °C 76 % 1019,8 hPa 0,0 l/m² 0 min 0 W/m² 0,0 km/h (0 Bft) 100,00 %
16.04.2026 04:22 12,7 °C 11,7 °C 8,3 °C 76 % 1019,7 hPa 0,0 l/m² 0 min 0 W/m² 0,0 km/h (0 Bft) 97,87 %
16.04.2026 04:24 12,7 °C 11,7 °C 8,3 °C 76 % 1019,8 hPa 0,0 l/m² 0 min 0 W/m² 3,2 km/h (1 Bft) 100,00 %
16.04.2026 04:26 12,7 °C 11,7 °C 8,3 °C 76 % 1019,7 hPa 0,0 l/m² 0 min 0 W/m² 3,2 km/h (1 Bft) 100,00 %
16.04.2026 04:28 12,7 °C 11,7 °C 8,3 °C 76 % 1019,7 hPa 0,0 l/m² 0 min 0 W/m² 3,2 km/h (1 Bft) 96,23 %
16.04.2026 04:30 12,7 °C 11,7 °C 8,3 °C 76 % 1019,7 hPa 0,0 l/m² 0 min 0 W/m² 6,4 km/h (2 Bft) 97,87 %
16.04.2026 04:32 12,7 °C 11,7 °C 8,3 °C 76 % 1019,7 hPa 0,0 l/m² 0 min 0 W/m² 0,0 km/h (0 Bft) 93,62 %
16.04.2026 04:34 12,7 °C 11,7 °C 8,3 °C 76 % 1019,7 hPa 0,0 l/m² 0 min 0 W/m² 6,4 km/h (2 Bft) 97,87 %
16.04.2026 04:36 12,7 °C 11,7 °C 8,3 °C 76 % 1019,8 hPa 0,0 l/m² 0 min 0 W/m² 12,9 km/h (3 Bft) 97,87 %
16.04.2026 04:38 12,7 °C 12,2 °C 8,3 °C 76 % 1019,8 hPa 0,0 l/m² 0 min 0 W/m² 6,4 km/h (2 Bft) 95,65 %
16.04.2026 04:40 12,7 °C 12,2 °C 8,3 °C 76 % 1019,8 hPa 0,0 l/m² 0 min 0 W/m² 0,0 km/h (0 Bft) 97,87 %
16.04.2026 04:42 12,7 °C 12,2 °C 8,3 °C 76 % 1019,8 hPa 0,0 l/m² 0 min 0 W/m² 3,2 km/h (1 Bft) 95,74 %
16.04.2026 04:44 12,7 °C 12,2 °C 8,3 °C 76 % 1019,8 hPa 0,0 l/m² 0 min 0 W/m² 6,4 km/h (2 Bft) 97,87 %
16.04.2026 04:46 12,7 °C 12,2 °C 8,3 °C 76 % 1019,8 hPa 0,0 l/m² 0 min 0 W/m² 9,7 km/h (2 Bft) 95,74 %
16.04.2026 04:48 12,7 °C 12,2 °C 8,3 °C 76 % 1019,9 hPa 0,0 l/m² 0 min 0 W/m² 9,7 km/h (2 Bft) 97,78 %
16.04.2026 04:50 12,7 °C 12,2 °C 8,3 °C 76 % 1019,9 hPa 0,0 l/m² 0 min 0 W/m² 6,4 km/h (2 Bft) 97,87 %
16.04.2026 04:52 12,7 °C 12,2 °C 8,3 °C 76 % 1019,9 hPa 0,0 l/m² 0 min 0 W/m² 6,4 km/h (2 Bft) 95,74 %
16.04.2026 04:54 12,7 °C 12,2 °C 8,3 °C 76 % 1019,9 hPa 0,0 l/m² 0 min 0 W/m² 3,2 km/h (1 Bft) 97,83 %
16.04.2026 04:56 12,7 °C 12,2 °C 8,9 °C 76 % 1019,9 hPa 0,0 l/m² 0 min 0 W/m² 3,2 km/h (1 Bft) 98,00 %
16.04.2026 04:58 12,7 °C 12,2 °C 8,9 °C 76 % 1019,9 hPa 0,0 l/m² 0 min 0 W/m² 6,4 km/h (2 Bft) 95,74 %
16.04.2026 05:00 12,7 °C 12,2 °C 8,9 °C 76 % 1020,0 hPa 0,0 l/m² 0 min 0 W/m² 6,4 km/h (2 Bft) 93,62 %
16.04.2026 05:02 12,7 °C 12,2 °C 8,9 °C 76 % 1020,0 hPa 0,0 l/m² 0 min 0 W/m² 6,4 km/h (2 Bft) 95,74 %
16.04.2026 05:04 12,7 °C 12,2 °C 8,9 °C 76 % 1020,0 hPa 0,0 l/m² 0 min 0 W/m² 3,2 km/h (1 Bft) 97,87 %
16.04.2026 05:06 12,7 °C 12,2 °C 8,9 °C 76 % 1020,0 hPa 0,0 l/m² 0 min 0 W/m² 3,2 km/h (1 Bft) 97,87 %
16.04.2026 05:08 12,8 °C 12,2 °C 8,9 °C 76 % 1020,0 hPa 0,0 l/m² 0 min 0 W/m² 3,2 km/h (1 Bft) 97,87 %
16.04.2026 05:10 12,8 °C 12,2 °C 8,9 °C 76 % 1020,0 hPa 0,0 l/m² 0 min 0 W/m² 6,4 km/h (2 Bft) 100,00 %
16.04.2026 05:12 12,8 °C 12,2 °C 8,9 °C 76 % 1020,0 hPa 0,0 l/m² 0 min 0 W/m² 0,0 km/h (0 Bft) 97,87 %
16.04.2026 05:14 12,8 °C 12,2 °C 8,9 °C 76 % 1020,0 hPa 0,0 l/m² 0 min 0 W/m² 3,2 km/h (1 Bft) 97,87 %
16.04.2026 05:16 12,8 °C 12,2 °C 8,9 °C 76 % 1020,0 hPa 0,0 l/m² 0 min 0 W/m² 0,0 km/h (0 Bft) 100,00 %
16.04.2026 05:18 12,8 °C 12,2 °C 8,9 °C 76 % 1020,0 hPa 0,0 l/m² 0 min 0 W/m² 3,2 km/h (1 Bft) 100,00 %
16.04.2026 05:20 12,8 °C 12,2 °C 8,3 °C 77 % 1020,0 hPa 0,0 l/m² 0 min 0 W/m² 3,2 km/h (1 Bft) 100,00 %
16.04.2026 05:22 12,8 °C 12,2 °C 8,3 °C 77 % 1020,0 hPa 0,0 l/m² 0 min 0 W/m² 6,4 km/h (2 Bft) 100,00 %
16.04.2026 05:24 12,9 °C 12,2 °C 8,3 °C 77 % 1020,0 hPa 0,0 l/m² 0 min 0 W/m² 6,4 km/h (2 Bft) 98,00 %
16.04.2026 05:26 12,9 °C 12,2 °C 8,3 °C 78 % 1020,0 hPa 0,0 l/m² 0 min 0 W/m² 9,7 km/h (2 Bft) 100,00 %
16.04.2026 05:28 12,9 °C 12,2 °C 8,3 °C 78 % 1020,0 hPa 0,0 l/m² 0 min 0 W/m² 3,2 km/h (1 Bft) 98,00 %
16.04.2026 05:30 12,9 °C 12,2 °C 8,3 °C 79 % 1020,1 hPa 0,0 l/m² 0 min 0 W/m² 6,4 km/h (2 Bft) 100,00 %
16.04.2026 05:32 12,9 °C 12,2 °C 8,3 °C 79 % 1020,1 hPa 0,0 l/m² 0 min 0 W/m² 3,2 km/h (1 Bft) 97,87 %
16.04.2026 05:34 12,9 °C 12,2 °C 8,3 °C 80 % 1020,1 hPa 0,0 l/m² 0 min 0 W/m² 3,2 km/h (1 Bft) 93,62 %
16.04.2026 05:36 12,9 °C 12,2 °C 8,3 °C 80 % 1020,1 hPa 0,0 l/m² 0 min 0 W/m² 6,4 km/h (2 Bft) 97,87 %
16.04.2026 05:38 12,8 °C 12,2 °C 8,3 °C 80 % 1020,1 hPa 0,0 l/m² 0 min 0 W/m² 0,0 km/h (0 Bft) 95,74 %
16.04.2026 05:40 12,8 °C 12,2 °C 8,3 °C 80 % 1020,2 hPa 0,0 l/m² 0 min 0 W/m² 3,2 km/h (1 Bft) 98,00 %
16.04.2026 05:42 12,8 °C 12,2 °C 8,3 °C 80 % 1020,2 hPa 0,0 l/m² 0 min 0 W/m² 0,0 km/h (0 Bft) 96,00 %
16.04.2026 05:44 12,8 °C 12,2 °C 8,3 °C 80 % 1020,2 hPa 0,0 l/m² 0 min 0 W/m² 3,2 km/h (1 Bft) 95,65 %
16.04.2026 05:46 12,8 °C 12,2 °C 8,3 °C 80 % 1020,2 hPa 0,0 l/m² 0 min 0 W/m² 0,0 km/h (0 Bft) 95,74 %
16.04.2026 05:48 12,8 °C 12,2 °C 8,3 °C 80 % 1020,2 hPa 0,0 l/m² 0 min 0 W/m² 6,4 km/h (2 Bft) 93,62 %
16.04.2026 05:50 12,8 °C 12,2 °C 8,3 °C 80 % 1020,2 hPa 0,0 l/m² 0 min 0 W/m² 6,4 km/h (2 Bft) 93,62 %
16.04.2026 05:52 12,8 °C 12,2 °C 8,3 °C 80 % 1020,2 hPa 0,0 l/m² 0 min 0 W/m² 0,0 km/h (0 Bft) 97,14 %
16.04.2026 05:54 12,8 °C 12,2 °C 8,3 °C 80 % 1020,2 hPa 0,0 l/m² 0 min 0 W/m² 0,0 km/h (0 Bft) 92,98 %
16.04.2026 05:56 12,8 °C 12,2 °C 8,3 °C 80 % 1020,3 hPa 0,0 l/m² 0 min 0 W/m² 0,0 km/h (0 Bft) 97,14 %
16.04.2026 05:58 12,8 °C 12,2 °C 8,3 °C 80 % 1020,3 hPa 0,0 l/m² 0 min 0 W/m² 0,0 km/h (0 Bft) 93,88 %
16.04.2026 06:00 12,8 °C 12,2 °C 8,3 °C 80 % 1020,3 hPa 0,0 l/m² 0 min 0 W/m² 0,0 km/h (0 Bft) 93,62 %
16.04.2026 06:02 12,8 °C 12,2 °C 8,3 °C 80 % 1020,2 hPa 0,0 l/m² 0 min 0 W/m² 6,4 km/h (2 Bft) 93,62 %
16.04.2026 06:04 12,8 °C 12,2 °C 8,3 °C 80 % 1020,3 hPa 0,0 l/m² 0 min 0 W/m² 0,0 km/h (0 Bft) 98,00 %
16.04.2026 06:06 12,8 °C 12,2 °C 8,3 °C 80 % 1020,4 hPa 0,0 l/m² 0 min 0 W/m² 0,0 km/h (0 Bft) 100,00 %
16.04.2026 06:08 12,8 °C 12,2 °C 8,3 °C 80 % 1020,4 hPa 0,0 l/m² 0 min 0 W/m² 0,0 km/h (0 Bft) 93,75 %
16.04.2026 06:10 12,9 °C 12,2 °C 8,3 °C 81 % 1020,3 hPa 0,0 l/m² 0 min 0 W/m² 0,0 km/h (0 Bft) 95,74 %
16.04.2026 06:12 12,9 °C 12,2 °C 7,8 °C 81 % 1020,4 hPa 0,0 l/m² 0 min 0 W/m² 3,2 km/h (1 Bft) 97,87 %
16.04.2026 06:14 12,9 °C 11,7 °C 7,8 °C 82 % 1020,5 hPa 0,0 l/m² 0 min 0 W/m² 3,2 km/h (1 Bft) 98,00 %
16.04.2026 06:16 12,9 °C 11,7 °C 7,8 °C 82 % 1020,5 hPa 0,0 l/m² 0 min 0 W/m² 3,2 km/h (1 Bft) 97,87 %
16.04.2026 06:18 12,9 °C 11,7 °C 7,8 °C 82 % 1020,4 hPa 0,0 l/m² 0 min 0 W/m² 0,0 km/h (0 Bft) 97,87 %
16.04.2026 06:20 12,8 °C 11,7 °C 7,2 °C 83 % 1020,5 hPa 0,0 l/m² 0 min 0 W/m² 3,2 km/h (1 Bft) 97,83 %
16.04.2026 06:22 12,8 °C 11,7 °C 7,2 °C 83 % 1020,6 hPa 0,0 l/m² 0 min 0 W/m² 3,2 km/h (1 Bft) 97,87 %
16.04.2026 06:24 12,8 °C 11,7 °C 7,2 °C 84 % 1020,6 hPa 0,0 l/m² 0 min 0 W/m² 0,0 km/h (0 Bft) 97,56 %
16.04.2026 06:26 12,8 °C 11,7 °C 7,2 °C 84 % 1020,6 hPa 0,0 l/m² 0 min 0 W/m² 3,2 km/h (1 Bft) 93,62 %
16.04.2026 06:28 12,7 °C 11,7 °C 7,2 °C 84 % 1020,6 hPa 0,2 l/m² 0 min 0 W/m² 3,2 km/h (1 Bft) 100,00 %
16.04.2026 06:30 12,7 °C 11,7 °C 7,2 °C 85 % 1020,6 hPa 0,0 l/m² 0 min 0 W/m² 6,4 km/h (2 Bft) 100,00 %
16.04.2026 06:32 12,7 °C 11,7 °C 7,2 °C 85 % 1020,7 hPa 0,0 l/m² 0 min 0 W/m² 0,0 km/h (0 Bft) 97,87 %
16.04.2026 06:34 12,6 °C 11,1 °C 6,7 °C 85 % 1020,7 hPa 0,0 l/m² 0 min 0 W/m² 3,2 km/h (1 Bft) 100,00 %
16.04.2026 06:36 12,6 °C 11,1 °C 6,7 °C 86 % 1020,7 hPa 0,0 l/m² 0 min 0 W/m² 3,2 km/h (1 Bft) 100,00 %
16.04.2026 06:38 12,5 °C 11,1 °C 6,7 °C 86 % 1020,7 hPa 0,0 l/m² 0 min 0 W/m² 12,9 km/h (3 Bft) 100,00 %
16.04.2026 06:40 12,4 °C 11,1 °C 6,7 °C 87 % 1020,7 hPa 0,0 l/m² 0 min 0 W/m² 6,4 km/h (2 Bft) 100,00 %
16.04.2026 06:42 12,4 °C 11,1 °C 6,7 °C 87 % 1020,8 hPa 0,0 l/m² 0 min 0 W/m² 6,4 km/h (2 Bft) 100,00 %
16.04.2026 06:44 12,3 °C 11,1 °C 6,7 °C 87 % 1020,7 hPa 0,0 l/m² 0 min 0 W/m² 6,4 km/h (2 Bft) 100,00 %
16.04.2026 06:46 12,3 °C 11,1 °C 6,7 °C 88 % 1020,7 hPa 0,0 l/m² 0 min 0 W/m² 3,2 km/h (1 Bft) 97,87 %
16.04.2026 06:48 12,3 °C 11,1 °C 6,7 °C 88 % 1020,8 hPa 0,0 l/m² 0 min 0 W/m² 6,4 km/h (2 Bft) 100,00 %
16.04.2026 06:50 12,3 °C 11,1 °C 6,7 °C 88 % 1020,8 hPa 0,0 l/m² 0 min 0 W/m² 0,0 km/h (0 Bft) 100,00 %
16.04.2026 06:52 12,3 °C 11,1 °C 7,2 °C 88 % 1020,8 hPa 0,0 l/m² 0 min 0 W/m² 0,0 km/h (0 Bft) 100,00 %
16.04.2026 06:54 12,2 °C 11,1 °C 6,7 °C 89 % 1020,9 hPa 0,0 l/m² 0 min 0 W/m² 0,0 km/h (0 Bft) 97,96 %
16.04.2026 06:56 12,2 °C 11,1 °C 6,7 °C 89 % 1020,9 hPa 0,0 l/m² 0 min 0 W/m² 3,2 km/h (1 Bft) 95,74 %
16.04.2026 06:58 12,2 °C 11,1 °C 6,7 °C 89 % 1020,9 hPa 0,2 l/m² 0 min 0 W/m² 3,2 km/h (1 Bft) 97,37 %
16.04.2026 07:00 12,1 °C 11,1 °C 6,7 °C 89 % 1021,0 hPa 0,0 l/m² 0 min 0 W/m² 3,2 km/h (1 Bft) 98,00 %
16.04.2026 07:02 12,1 °C 11,1 °C 6,7 °C 89 % 1021,0 hPa 0,0 l/m² 0 min 0 W/m² 3,2 km/h (1 Bft) 98,00 %
16.04.2026 07:04 12,1 °C 11,1 °C 6,7 °C 89 % 1021,1 hPa 0,0 l/m² 0 min 0 W/m² 3,2 km/h (1 Bft) 97,87 %
16.04.2026 07:06 12,1 °C 11,1 °C 6,7 °C 89 % 1021,0 hPa 0,0 l/m² 0 min 2 W/m² 3,2 km/h (1 Bft) 97,87 %
16.04.2026 07:08 12,1 °C 11,1 °C 6,7 °C 90 % 1021,0 hPa 0,0 l/m² 0 min 5 W/m² 0,0 km/h (0 Bft) 97,87 %
16.04.2026 07:10 12,1 °C 11,1 °C 6,7 °C 90 % 1021,0 hPa 0,0 l/m² 0 min 5 W/m² 0,0 km/h (0 Bft) 97,83 %
16.04.2026 07:12 12,1 °C 11,1 °C 6,7 °C 90 % 1020,9 hPa 0,0 l/m² 0 min 7 W/m² 0,0 km/h (0 Bft) 97,87 %
16.04.2026 07:14 12,1 °C 11,1 °C 7,2 °C 90 % 1021,0 hPa 0,0 l/m² 0 min 7 W/m² 0,0 km/h (0 Bft) 97,44 %
16.04.2026 07:16 12,1 °C 11,1 °C 6,7 °C 90 % 1021,0 hPa 0,0 l/m² 0 min 7 W/m² 3,2 km/h (1 Bft) 98,15 %
16.04.2026 07:18 12,0 °C 11,1 °C 6,7 °C 90 % 1020,9 hPa 0,0 l/m² 0 min 7 W/m² 0,0 km/h (0 Bft) 97,62 %
16.04.2026 07:20 12,0 °C 11,1 °C 6,7 °C 90 % 1021,0 hPa 0,0 l/m² 0 min 7 W/m² 6,4 km/h (2 Bft) 97,87 %
16.04.2026 07:22 12,0 °C 11,1 °C 7,2 °C 90 % 1021,0 hPa 0,0 l/m² 0 min 7 W/m² 3,2 km/h (1 Bft) 93,62 %
16.04.2026 07:24 12,0 °C 11,1 °C 7,2 °C 91 % 1021,1 hPa 0,0 l/m² 0 min 10 W/m² 3,2 km/h (1 Bft) 93,62 %
16.04.2026 07:26 12,0 °C 11,1 °C 7,2 °C 91 % 1021,1 hPa 0,2 l/m² 0 min 11 W/m² 3,2 km/h (1 Bft) 96,00 %
16.04.2026 07:28 12,0 °C 11,1 °C 7,2 °C 91 % 1021,1 hPa 0,0 l/m² 0 min 12 W/m² 3,2 km/h (1 Bft) 95,65 %
16.04.2026 07:30 12,1 °C 11,1 °C 7,2 °C 91 % 1021,1 hPa 0,0 l/m² 0 min 13 W/m² 3,2 km/h (1 Bft) 94,87 %
16.04.2026 07:32 12,1 °C 11,1 °C 7,2 °C 91 % 1021,1 hPa 0,0 l/m² 0 min 15 W/m² 3,2 km/h (1 Bft) 94,83 %
16.04.2026 07:34 12,1 °C 11,1 °C 7,2 °C 91 % 1021,1 hPa 0,0 l/m² 0 min 18 W/m² 3,2 km/h (1 Bft) 95,74 %
16.04.2026 07:36 12,1 °C 11,1 °C 7,2 °C 91 % 1021,1 hPa 0,0 l/m² 0 min 21 W/m² 0,0 km/h (0 Bft) 97,87 %
16.04.2026 07:38 12,1 °C 11,1 °C 7,2 °C 91 % 1021,1 hPa 0,0 l/m² 0 min 25 W/m² 0,0 km/h (0 Bft) 97,87 %
16.04.2026 07:40 12,1 °C 11,1 °C 7,2 °C 91 % 1021,1 hPa 0,0 l/m² 0 min 27 W/m² 3,2 km/h (1 Bft) 97,87 %
16.04.2026 07:42 12,1 °C 11,1 °C 7,2 °C 92 % 1021,1 hPa 0,0 l/m² 0 min 28 W/m² 3,2 km/h (1 Bft) 97,87 %
16.04.2026 07:44 12,1 °C 11,1 °C 7,2 °C 92 % 1021,2 hPa 0,0 l/m² 0 min 27 W/m² 6,4 km/h (2 Bft) 97,37 %
16.04.2026 07:46 12,1 °C 11,1 °C 7,2 °C 92 % 1021,1 hPa 0,2 l/m² 0 min 25 W/m² 3,2 km/h (1 Bft) 95,65 %
16.04.2026 07:48 12,1 °C 11,1 °C 7,2 °C 92 % 1021,1 hPa 0,0 l/m² 0 min 22 W/m² 6,4 km/h (2 Bft) 96,23 %
16.04.2026 07:50 12,1 °C 11,1 °C 7,2 °C 92 % 1021,2 hPa 0,2 l/m² 0 min 21 W/m² 0,0 km/h (0 Bft) 97,87 %
16.04.2026 07:52 12,1 °C 11,1 °C 7,2 °C 92 % 1021,2 hPa 0,0 l/m² 0 min 20 W/m² 3,2 km/h (1 Bft) 100,00 %
16.04.2026 07:54 12,2 °C 11,1 °C 7,2 °C 92 % 1021,2 hPa 0,0 l/m² 0 min 22 W/m² 6,4 km/h (2 Bft) 100,00 %
16.04.2026 07:56 12,2 °C 11,1 °C 7,2 °C 93 % 1021,2 hPa 0,0 l/m² 0 min 23 W/m² 3,2 km/h (1 Bft) 98,11 %
16.04.2026 07:58 12,1 °C 11,1 °C 7,2 °C 93 % 1021,3 hPa 0,0 l/m² 0 min 25 W/m² 9,7 km/h (2 Bft) 100,00 %
16.04.2026 08:00 12,1 °C 11,1 °C 7,2 °C 93 % 1021,2 hPa 0,0 l/m² 0 min 29 W/m² 6,4 km/h (2 Bft) 100,00 %
16.04.2026 08:02 12,1 °C 11,1 °C 7,2 °C 93 % 1021,2 hPa 0,0 l/m² 0 min 37 W/m² 3,2 km/h (1 Bft) 97,37 %
16.04.2026 08:04 12,1 °C 11,1 °C 7,2 °C 93 % 1021,2 hPa 0,0 l/m² 0 min 47 W/m² 3,2 km/h (1 Bft) 97,96 %
16.04.2026 08:06 12,1 °C 11,7 °C 7,2 °C 93 % 1021,2 hPa 0,0 l/m² 0 min 56 W/m² 6,4 km/h (2 Bft) 98,31 %
16.04.2026 08:08 12,1 °C 11,7 °C 7,2 °C 93 % 1021,2 hPa 0,0 l/m² 0 min 63 W/m² 6,4 km/h (2 Bft) 97,14 %
16.04.2026 08:10 12,1 °C 11,7 °C 7,2 °C 93 % 1021,2 hPa 0,0 l/m² 0 min 67 W/m² 3,2 km/h (1 Bft) 100,00 %
16.04.2026 08:12 12,2 °C 11,7 °C 7,2 °C 93 % 1021,3 hPa 0,0 l/m² 0 min 69 W/m² 3,2 km/h (1 Bft) 100,00 %
16.04.2026 08:14 12,2 °C 11,7 °C 7,2 °C 93 % 1021,2 hPa 0,0 l/m² 0 min 69 W/m² 6,4 km/h (2 Bft) 97,87 %
16.04.2026 08:16 12,2 °C 11,7 °C 7,2 °C 94 % 1021,3 hPa 0,0 l/m² 0 min 69 W/m² 3,2 km/h (1 Bft) 100,00 %
16.04.2026 08:18 12,2 °C 11,7 °C 7,2 °C 94 % 1021,2 hPa 0,0 l/m² 0 min 69 W/m² 3,2 km/h (1 Bft) 100,00 %
16.04.2026 08:20 12,2 °C 11,7 °C 7,2 °C 94 % 1021,3 hPa 0,0 l/m² 0 min 67 W/m² 3,2 km/h (1 Bft) 97,87 %
16.04.2026 08:22 12,2 °C 11,7 °C 7,2 °C 94 % 1021,2 hPa 0,0 l/m² 0 min 65 W/m² 3,2 km/h (1 Bft) 100,00 %
16.04.2026 08:24 12,2 °C 11,7 °C 7,2 °C 94 % 1021,2 hPa 0,0 l/m² 0 min 68 W/m² 3,2 km/h (1 Bft) 100,00 %
16.04.2026 08:26 12,2 °C 11,7 °C 7,8 °C 94 % 1021,3 hPa 0,0 l/m² 0 min 70 W/m² 3,2 km/h (1 Bft) 97,62 %
16.04.2026 08:28 12,2 °C 11,7 °C 7,8 °C 94 % 1021,3 hPa 0,0 l/m² 0 min 74 W/m² 3,2 km/h (1 Bft) 98,00 %
16.04.2026 08:30 12,3 °C 11,7 °C 7,8 °C 94 % 1021,3 hPa 0,0 l/m² 0 min 77 W/m² 6,4 km/h (2 Bft) 100,00 %
16.04.2026 08:32 12,3 °C 11,7 °C 7,8 °C 94 % 1021,4 hPa 0,0 l/m² 0 min 83 W/m² 3,2 km/h (1 Bft) 98,00 %
16.04.2026 08:34 12,3 °C 12,2 °C 7,8 °C 94 % 1021,3 hPa 0,0 l/m² 0 min 81 W/m² 3,2 km/h (1 Bft) 100,00 %
16.04.2026 08:36 12,3 °C 12,2 °C 7,8 °C 94 % 1021,4 hPa 0,0 l/m² 0 min 83 W/m² 3,2 km/h (1 Bft) 97,83 %
16.04.2026 08:38 12,3 °C 12,2 °C 7,8 °C 94 % 1021,4 hPa 0,0 l/m² 0 min 78 W/m² 0,0 km/h (0 Bft) 97,87 %
16.04.2026 08:40 12,3 °C 12,2 °C 7,8 °C 94 % 1021,4 hPa 0,0 l/m² 0 min 73 W/m² 3,2 km/h (1 Bft) 100,00 %
16.04.2026 08:42 12,4 °C 12,2 °C 7,8 °C 94 % 1021,4 hPa 0,0 l/m² 0 min 74 W/m² 3,2 km/h (1 Bft) 100,00 %
16.04.2026 08:44 12,4 °C 12,2 °C 7,8 °C 94 % 1021,4 hPa 0,0 l/m² 0 min 78 W/m² 3,2 km/h (1 Bft) 96,30 %
16.04.2026 08:46 12,4 °C 12,2 °C 7,8 °C 95 % 1021,4 hPa 0,0 l/m² 0 min 77 W/m² 3,2 km/h (1 Bft) 97,87 %
16.04.2026 08:48 12,4 °C 12,2 °C 7,8 °C 95 % 1021,4 hPa 0,0 l/m² 0 min 82 W/m² 6,4 km/h (2 Bft) 97,87 %
16.04.2026 08:50 12,4 °C 12,2 °C 7,8 °C 95 % 1021,5 hPa 0,0 l/m² 0 min 83 W/m² 3,2 km/h (1 Bft) 94,74 %
16.04.2026 08:52 12,4 °C 12,2 °C 7,8 °C 95 % 1021,5 hPa 0,0 l/m² 0 min 84 W/m² 6,4 km/h (2 Bft) 97,87 %
16.04.2026 08:54 12,4 °C 12,2 °C 7,8 °C 95 % 1021,6 hPa 0,0 l/m² 0 min 95 W/m² 6,4 km/h (2 Bft) 96,15 %
16.04.2026 08:56 12,5 °C 12,2 °C 7,8 °C 95 % 1021,6 hPa 0,0 l/m² 0 min 117 W/m² 6,4 km/h (2 Bft) 97,87 %
16.04.2026 08:58 12,5 °C 12,2 °C 7,8 °C 95 % 1021,6 hPa 0,0 l/m² 0 min 108 W/m² 3,2 km/h (1 Bft) 95,74 %
16.04.2026 09:00 12,5 °C 12,8 °C 7,8 °C 95 % 1021,7 hPa 0,0 l/m² 0 min 119 W/m² 6,4 km/h (2 Bft) 93,62 %
16.04.2026 09:02 12,5 °C 12,8 °C 7,8 °C 95 % 1021,7 hPa 0,0 l/m² 0 min 140 W/m² 3,2 km/h (1 Bft) 98,00 %
16.04.2026 09:04 12,6 °C 12,8 °C 7,8 °C 95 % 1021,7 hPa 0,0 l/m² 0 min 113 W/m² 6,4 km/h (2 Bft) 97,87 %
16.04.2026 09:06 12,6 °C 12,8 °C 7,8 °C 95 % 1021,7 hPa 0,0 l/m² 0 min 108 W/m² 6,4 km/h (2 Bft) 97,87 %
16.04.2026 09:08 12,6 °C 12,8 °C 7,8 °C 95 % 1021,7 hPa 0,0 l/m² 0 min 97 W/m² 6,4 km/h (2 Bft) 95,65 %
16.04.2026 09:10 12,6 °C 12,8 °C 7,8 °C 95 % 1021,7 hPa 0,0 l/m² 0 min 85 W/m² 3,2 km/h (1 Bft) 93,62 %
16.04.2026 09:12 12,6 °C 12,8 °C 7,8 °C 95 % 1021,7 hPa 0,0 l/m² 0 min 91 W/m² 3,2 km/h (1 Bft) 92,11 %
16.04.2026 09:14 12,6 °C 12,8 °C 7,8 °C 95 % 1021,8 hPa 0,0 l/m² 0 min 103 W/m² 3,2 km/h (1 Bft) 95,65 %
16.04.2026 09:16 12,6 °C 13,3 °C 7,8 °C 95 % 1021,8 hPa 0,0 l/m² 0 min 124 W/m² 6,4 km/h (2 Bft) 96,00 %
16.04.2026 09:18 12,6 °C 13,9 °C 7,8 °C 95 % 1021,8 hPa 0,0 l/m² 0 min 150 W/m² 3,2 km/h (1 Bft) 94,00 %
16.04.2026 09:20 12,6 °C 15,6 °C 7,8 °C 95 % 1021,8 hPa 0,0 l/m² 2 min 233 W/m² 9,7 km/h (2 Bft) 96,00 %
16.04.2026 09:22 12,7 °C 17,2 °C 8,3 °C 95 % 1021,8 hPa 0,0 l/m² 2 min 384 W/m² 12,9 km/h (3 Bft) 89,47 %
16.04.2026 09:24 12,8 °C 17,8 °C 8,9 °C 95 % 1021,8 hPa 0,0 l/m² 2 min 377 W/m² 12,9 km/h (3 Bft) 93,62 %
16.04.2026 09:26 12,8 °C 16,7 °C 8,9 °C 96 % 1021,8 hPa 0,0 l/m² 2 min 233 W/m² 9,7 km/h (2 Bft) 95,74 %
16.04.2026 09:28 12,8 °C 16,1 °C 8,9 °C 96 % 1021,8 hPa 0,0 l/m² 0 min 175 W/m² 9,7 km/h (2 Bft) 93,62 %
16.04.2026 09:30 12,9 °C 16,1 °C 8,9 °C 96 % 1021,8 hPa 0,0 l/m² 2 min 216 W/m² 6,4 km/h (2 Bft) 95,74 %
16.04.2026 09:32 12,9 °C 15,6 °C 8,9 °C 96 % 1021,8 hPa 0,0 l/m² 0 min 212 W/m² 3,2 km/h (1 Bft) 93,48 %
16.04.2026 09:34 12,9 °C 15,6 °C 8,9 °C 96 % 1021,8 hPa 0,0 l/m² 0 min 208 W/m² 3,2 km/h (1 Bft) 93,62 %
16.04.2026 09:36 12,9 °C 15,0 °C 8,9 °C 95 % 1021,8 hPa 0,0 l/m² 0 min 165 W/m² 16,1 km/h (3 Bft) 95,74 %
16.04.2026 09:38 13,0 °C 14,4 °C 8,9 °C 95 % 1021,8 hPa 0,0 l/m² 0 min 146 W/m² 3,2 km/h (1 Bft) 93,62 %
16.04.2026 09:40 13,1 °C 14,4 °C 8,9 °C 95 % 1021,8 hPa 0,0 l/m² 0 min 141 W/m² 6,4 km/h (2 Bft) 96,30 %
16.04.2026 09:42 13,1 °C 15,0 °C 8,9 °C 95 % 1021,8 hPa 0,0 l/m² 0 min 173 W/m² 6,4 km/h (2 Bft) 93,62 %
16.04.2026 09:44 13,1 °C 15,6 °C 8,9 °C 95 % 1021,9 hPa 0,0 l/m² 2 min 285 W/m² 6,4 km/h (2 Bft) 95,74 %
16.04.2026 09:46 13,1 °C 15,6 °C 8,3 °C 95 % 1021,8 hPa 0,0 l/m² 2 min 281 W/m² 16,1 km/h (3 Bft) 94,74 %
16.04.2026 09:48 13,2 °C 16,1 °C 8,9 °C 95 % 1021,8 hPa 0,0 l/m² 2 min 362 W/m² 3,2 km/h (1 Bft) 97,87 %
16.04.2026 09:50 13,3 °C 16,1 °C 8,9 °C 95 % 1021,8 hPa 0,0 l/m² 2 min 416 W/m² 9,7 km/h (2 Bft) 97,96 %
16.04.2026 09:52 13,4 °C 16,1 °C 8,9 °C 95 % 1021,8 hPa 0,0 l/m² 2 min 402 W/m² 12,9 km/h (3 Bft) 98,00 %
16.04.2026 09:54 13,4 °C 16,1 °C 8,9 °C 95 % 1021,8 hPa 0,0 l/m² 2 min 422 W/m² 3,2 km/h (1 Bft) 97,87 %
16.04.2026 09:56 13,6 °C 15,6 °C 8,9 °C 95 % 1021,8 hPa 0,0 l/m² 2 min 403 W/m² 12,9 km/h (3 Bft) 97,87 %
16.04.2026 09:58 13,6 °C 16,1 °C 8,9 °C 94 % 1021,8 hPa 0,0 l/m² 2 min 417 W/m² 6,4 km/h (2 Bft) 97,87 %
16.04.2026 10:00 13,8 °C 16,1 °C 8,9 °C 94 % 1021,9 hPa 0,0 l/m² 2 min 457 W/m² 3,2 km/h (1 Bft) 98,00 %
16.04.2026 10:02 13,9 °C 15,6 °C 8,9 °C 94 % 1021,9 hPa 0,0 l/m² 2 min 466 W/m² 9,7 km/h (2 Bft) 97,37 %
16.04.2026 10:04 14,1 °C 16,1 °C 9,4 °C 94 % 1021,9 hPa 0,0 l/m² 2 min 488 W/m² 6,4 km/h (2 Bft) 97,87 %
16.04.2026 10:06 14,2 °C 16,7 °C 9,4 °C 93 % 1021,9 hPa 0,0 l/m² 2 min 470 W/m² 12,9 km/h (3 Bft) 96,55 %
16.04.2026 10:08 14,3 °C 16,7 °C 9,4 °C 92 % 1021,8 hPa 0,0 l/m² 2 min 496 W/m² 12,9 km/h (3 Bft) 100,00 %
16.04.2026 10:10 14,3 °C 16,7 °C 9,4 °C 92 % 1021,8 hPa 0,0 l/m² 2 min 472 W/m² 3,2 km/h (1 Bft) 91,49 %
16.04.2026 10:12 14,3 °C 16,7 °C 9,4 °C 92 % 1021,9 hPa 0,0 l/m² 2 min 435 W/m² 6,4 km/h (2 Bft) 97,87 %
16.04.2026 10:14 14,4 °C 16,7 °C 9,4 °C 91 % 1021,9 hPa 0,0 l/m² 2 min 375 W/m² 16,1 km/h (3 Bft) 96,00 %
16.04.2026 10:16 14,5 °C 16,1 °C 9,4 °C 90 % 1021,9 hPa 0,0 l/m² 2 min 358 W/m² 6,4 km/h (2 Bft) 97,87 %
16.04.2026 10:18 14,5 °C 16,1 °C 9,4 °C 89 % 1021,9 hPa 0,0 l/m² 2 min 327 W/m² 3,2 km/h (1 Bft) 97,78 %
16.04.2026 10:20 14,6 °C 16,7 °C 11,1 °C 89 % 1021,9 hPa 0,0 l/m² 2 min 347 W/m² 6,4 km/h (2 Bft) 98,00 %
16.04.2026 10:22 14,7 °C 17,2 °C 12,2 °C 89 % 1021,9 hPa 0,0 l/m² 2 min 368 W/m² 6,4 km/h (2 Bft) 95,65 %
16.04.2026 10:24 14,7 °C 18,3 °C 13,3 °C 88 % 1021,9 hPa 0,0 l/m² 2 min 510 W/m² 9,7 km/h (2 Bft) 97,87 %
16.04.2026 10:26 14,9 °C 20,0 °C 13,9 °C 88 % 1021,9 hPa 0,0 l/m² 2 min 480 W/m² 6,4 km/h (2 Bft) 97,62 %
16.04.2026 10:28 15,0 °C 20,0 °C 14,4 °C 87 % 1021,9 hPa 0,0 l/m² 2 min 579 W/m² 9,7 km/h (2 Bft) 98,00 %
16.04.2026 10:30 15,1 °C 20,0 °C 15,0 °C 86 % 1021,9 hPa 0,0 l/m² 2 min 587 W/m² 6,4 km/h (2 Bft) 97,87 %
16.04.2026 10:32 15,2 °C 19,4 °C 15,0 °C 85 % 1021,8 hPa 0,0 l/m² 2 min 503 W/m² 12,9 km/h (3 Bft) 95,74 %
16.04.2026 10:34 15,2 °C 18,9 °C 15,6 °C 85 % 1021,9 hPa 0,0 l/m² 2 min 501 W/m² 6,4 km/h (2 Bft) 95,74 %
16.04.2026 10:36 15,3 °C 18,3 °C 15,6 °C 85 % 1021,9 hPa 0,0 l/m² 2 min 649 W/m² 6,4 km/h (2 Bft) 97,87 %
16.04.2026 10:38 15,4 °C 17,8 °C 15,0 °C 84 % 1021,9 hPa 0,0 l/m² 2 min 427 W/m² 9,7 km/h (2 Bft) 95,74 %
16.04.2026 10:40 15,5 °C 17,2 °C 14,4 °C 84 % 1021,9 hPa 0,0 l/m² 2 min 594 W/m² 12,9 km/h (3 Bft) 97,83 %
16.04.2026 10:42 15,6 °C 17,2 °C 14,4 °C 83 % 1021,9 hPa 0,0 l/m² 2 min 615 W/m² 9,7 km/h (2 Bft) 98,00 %
16.04.2026 10:44 15,6 °C 17,2 °C 13,9 °C 83 % 1022,0 hPa 0,0 l/m² 2 min 641 W/m² 6,4 km/h (2 Bft) 84,00 %
16.04.2026 10:46 15,6 °C 16,7 °C 13,3 °C 81 % 1022,0 hPa 0,0 l/m² 2 min 630 W/m² 12,9 km/h (3 Bft) 69,77 %
16.04.2026 10:48 15,6 °C 17,8 °C 13,3 °C 80 % 1022,0 hPa 0,0 l/m² 2 min 650 W/m² 9,7 km/h (2 Bft) 97,56 %
16.04.2026 10:50 15,6 °C 17,2 °C 12,8 °C 80 % 1022,0 hPa 0,0 l/m² 2 min 511 W/m² 3,2 km/h (1 Bft) 100,00 %
16.04.2026 10:52 15,6 °C 17,8 °C 13,3 °C 80 % 1022,0 hPa 0,0 l/m² 2 min 559 W/m² 3,2 km/h (1 Bft) 100,00 %
16.04.2026 10:54 15,7 °C 18,9 °C 13,3 °C 81 % 1022,0 hPa 0,0 l/m² 2 min 790 W/m² 16,1 km/h (3 Bft) 100,00 %
16.04.2026 10:56 15,8 °C 18,9 °C 13,3 °C 80 % 1022,0 hPa 0,0 l/m² 2 min 779 W/m² 12,9 km/h (3 Bft) 97,14 %
16.04.2026 10:58 15,8 °C 18,3 °C 13,3 °C 79 % 1022,0 hPa 0,0 l/m² 0 min 252 W/m² 6,4 km/h (2 Bft) 100,00 %
16.04.2026 11:00 15,8 °C 17,2 °C 13,3 °C 79 % 1022,0 hPa 0,0 l/m² 0 min 234 W/m² 6,4 km/h (2 Bft) 100,00 %
16.04.2026 11:02 15,8 °C 17,2 °C 12,8 °C 78 % 1021,9 hPa 0,0 l/m² 0 min 196 W/m² 3,2 km/h (1 Bft) 100,00 %
16.04.2026 11:04 15,8 °C 16,7 °C 12,8 °C 79 % 1021,9 hPa 0,0 l/m² 0 min 209 W/m² 6,4 km/h (2 Bft) 100,00 %
16.04.2026 11:06 15,8 °C 16,7 °C 12,8 °C 79 % 1021,9 hPa 0,0 l/m² 0 min 242 W/m² 6,4 km/h (2 Bft) 100,00 %
16.04.2026 11:08 15,8 °C 16,7 °C 12,8 °C 79 % 1021,9 hPa 0,0 l/m² 0 min 280 W/m² 3,2 km/h (1 Bft) 100,00 %
16.04.2026 11:10 15,8 °C 16,7 °C 12,8 °C 79 % 1021,8 hPa 0,0 l/m² 0 min 282 W/m² 6,4 km/h (2 Bft) 97,87 %
16.04.2026 11:12 15,8 °C 17,2 °C 12,8 °C 78 % 1021,9 hPa 0,0 l/m² 0 min 272 W/m² 6,4 km/h (2 Bft) 97,83 %
16.04.2026 11:14 15,8 °C 17,8 °C 12,8 °C 78 % 1021,9 hPa 0,0 l/m² 0 min 291 W/m² 12,9 km/h (3 Bft) 97,87 %
16.04.2026 11:16 15,9 °C 17,8 °C 12,8 °C 78 % 1021,9 hPa 0,0 l/m² 0 min 292 W/m² 16,1 km/h (3 Bft) 97,87 %
16.04.2026 11:18 15,9 °C 20,0 °C 13,3 °C 78 % 1021,9 hPa 0,0 l/m² 2 min 493 W/m² 12,9 km/h (3 Bft) 94,74 %
16.04.2026 11:20 16,0 °C 19,4 °C 13,3 °C 77 % 1022,0 hPa 0,0 l/m² 2 min 814 W/m² 16,1 km/h (3 Bft) 97,87 %
16.04.2026 11:22 16,1 °C 20,0 °C 13,9 °C 77 % 1022,0 hPa 0,0 l/m² 2 min 336 W/m² 12,9 km/h (3 Bft) 98,00 %
16.04.2026 11:24 16,2 °C 18,9 °C 13,3 °C 78 % 1022,0 hPa 0,0 l/m² 0 min 245 W/m² 6,4 km/h (2 Bft) 96,00 %
16.04.2026 11:26 16,3 °C 18,3 °C 13,3 °C 78 % 1022,0 hPa 0,0 l/m² 0 min 216 W/m² 9,7 km/h (2 Bft) 96,00 %
16.04.2026 11:28 16,3 °C 17,8 °C 13,3 °C 78 % 1022,0 hPa 0,0 l/m² 0 min 240 W/m² 6,4 km/h (2 Bft) 94,74 %
16.04.2026 11:30 16,3 °C 18,3 °C 13,3 °C 77 % 1022,0 hPa 0,0 l/m² 0 min 270 W/m² 0,0 km/h (0 Bft) 93,62 %
16.04.2026 11:32 16,3 °C 17,8 °C 13,3 °C 76 % 1022,1 hPa 0,0 l/m² 0 min 264 W/m² 3,2 km/h (1 Bft) 95,65 %
16.04.2026 11:34 16,3 °C 17,2 °C 12,8 °C 76 % 1022,1 hPa 0,0 l/m² 0 min 272 W/m² 6,4 km/h (2 Bft) 97,87 %
16.04.2026 11:36 16,3 °C 17,2 °C 12,8 °C 75 % 1022,1 hPa 0,0 l/m² 0 min 288 W/m² 9,7 km/h (2 Bft) 95,74 %
16.04.2026 11:38 16,3 °C 17,2 °C 12,8 °C 75 % 1022,1 hPa 0,0 l/m² 0 min 255 W/m² 6,4 km/h (2 Bft) 93,62 %
16.04.2026 11:40 16,3 °C 17,2 °C 12,8 °C 75 % 1022,1 hPa 0,0 l/m² 0 min 234 W/m² 3,2 km/h (1 Bft) 95,74 %
16.04.2026 11:42 16,3 °C 17,8 °C 12,8 °C 75 % 1022,1 hPa 0,0 l/m² 0 min 226 W/m² 3,2 km/h (1 Bft) 93,62 %
16.04.2026 11:44 16,3 °C 17,8 °C 12,8 °C 75 % 1022,2 hPa 0,0 l/m² 0 min 237 W/m² 6,4 km/h (2 Bft) 95,74 %
16.04.2026 11:46 16,3 °C 17,2 °C 12,8 °C 75 % 1022,2 hPa 0,0 l/m² 0 min 251 W/m² 6,4 km/h (2 Bft) 95,65 %
16.04.2026 11:48 16,3 °C 17,2 °C 12,8 °C 74 % 1022,2 hPa 0,0 l/m² 0 min 276 W/m² 6,4 km/h (2 Bft) 97,87 %
16.04.2026 11:50 16,3 °C 18,3 °C 13,3 °C 75 % 1022,1 hPa 0,0 l/m² 2 min 341 W/m² 9,7 km/h (2 Bft) 97,87 %
16.04.2026 11:52 16,4 °C 19,4 °C 13,9 °C 74 % 1022,1 hPa 0,0 l/m² 2 min 380 W/m² 6,4 km/h (2 Bft) 97,87 %
16.04.2026 11:54 16,4 °C 20,0 °C 15,0 °C 74 % 1022,1 hPa 0,0 l/m² 2 min 380 W/m² 6,4 km/h (2 Bft) 97,87 %
16.04.2026 11:56 16,6 °C 20,6 °C 15,6 °C 75 % 1022,2 hPa 0,0 l/m² 2 min 600 W/m² 6,4 km/h (2 Bft) 95,74 %
16.04.2026 11:58 16,7 °C 20,6 °C 15,6 °C 74 % 1022,2 hPa 0,0 l/m² 2 min 526 W/m² 12,9 km/h (3 Bft) 97,87 %
16.04.2026 12:00 16,8 °C 21,7 °C 16,1 °C 73 % 1022,1 hPa 0,0 l/m² 2 min 539 W/m² 9,7 km/h (2 Bft) 95,92 %
16.04.2026 12:02 16,9 °C 22,8 °C 16,7 °C 74 % 1022,2 hPa 0,0 l/m² 2 min 596 W/m² 9,7 km/h (2 Bft) 97,87 %
16.04.2026 12:04 17,1 °C 23,3 °C 17,2 °C 74 % 1022,2 hPa 0,0 l/m² 2 min 631 W/m² 9,7 km/h (2 Bft) 97,87 %
16.04.2026 12:07 17,3 °C 22,2 °C 16,7 °C 73 % 1022,2 hPa 0,0 l/m² 2 min 514 W/m² 12,9 km/h (3 Bft) 97,37 %
16.04.2026 12:08 17,3 °C 21,7 °C 16,7 °C 73 % 1022,2 hPa 0,0 l/m² 1 min 553 W/m² 3,2 km/h (1 Bft) 100,00 %
16.04.2026 12:10 17,4 °C 22,8 °C 17,2 °C 72 % 1022,2 hPa 0,0 l/m² 2 min 700 W/m² 6,4 km/h (2 Bft) 100,00 %
16.04.2026 12:12 17,6 °C 23,3 °C 17,2 °C 72 % 1022,2 hPa 0,0 l/m² 2 min 654 W/m² 6,4 km/h (2 Bft) 97,37 %
16.04.2026 12:14 17,7 °C 23,3 °C 17,8 °C 71 % 1022,2 hPa 0,0 l/m² 2 min 606 W/m² 9,7 km/h (2 Bft) 97,87 %
16.04.2026 12:16 17,8 °C 24,4 °C 18,9 °C 70 % 1022,2 hPa 0,0 l/m² 2 min 649 W/m² 12,9 km/h (3 Bft) 100,00 %
16.04.2026 12:18 17,9 °C 24,4 °C 18,9 °C 69 % 1022,2 hPa 0,0 l/m² 2 min 793 W/m² 16,1 km/h (3 Bft) 100,00 %
16.04.2026 12:20 18,0 °C 22,8 °C 18,3 °C 69 % 1022,2 hPa 0,0 l/m² 2 min 748 W/m² 16,1 km/h (3 Bft) 95,74 %
16.04.2026 12:22 18,0 °C 21,7 °C 17,8 °C 68 % 1022,2 hPa 0,0 l/m² 2 min 450 W/m² 12,9 km/h (3 Bft) 100,00 %
16.04.2026 12:24 17,9 °C 20,6 °C 16,7 °C 68 % 1022,2 hPa 0,0 l/m² 2 min 433 W/m² 9,7 km/h (2 Bft) 97,14 %
16.04.2026 12:26 17,9 °C 20,0 °C 16,7 °C 68 % 1022,2 hPa 0,0 l/m² 2 min 389 W/m² 12,9 km/h (3 Bft) 100,00 %
16.04.2026 12:28 17,9 °C 19,4 °C 16,1 °C 69 % 1022,2 hPa 0,0 l/m² 2 min 373 W/m² 9,7 km/h (2 Bft) 100,00 %
16.04.2026 12:30 17,9 °C 19,4 °C 15,6 °C 69 % 1022,2 hPa 0,0 l/m² 2 min 363 W/m² 6,4 km/h (2 Bft) 100,00 %
16.04.2026 12:32 17,9 °C 19,4 °C 15,6 °C 69 % 1022,2 hPa 0,0 l/m² 0 min 352 W/m² 6,4 km/h (2 Bft) 100,00 %
16.04.2026 12:34 17,8 °C 18,3 °C 15,0 °C 68 % 1022,2 hPa 0,0 l/m² 0 min 282 W/m² 12,9 km/h (3 Bft) 100,00 %
16.04.2026 12:36 17,7 °C 18,3 °C 14,4 °C 68 % 1022,2 hPa 0,0 l/m² 0 min 247 W/m² 6,4 km/h (2 Bft) 100,00 %
16.04.2026 12:38 17,7 °C 17,8 °C 14,4 °C 68 % 1022,2 hPa 0,0 l/m² 0 min 260 W/m² 16,1 km/h (3 Bft) 100,00 %
16.04.2026 12:40 17,6 °C 18,3 °C 14,4 °C 69 % 1022,2 hPa 0,0 l/m² 0 min 271 W/m² 6,4 km/h (2 Bft) 100,00 %
16.04.2026 12:42 17,6 °C 17,8 °C 13,9 °C 69 % 1022,2 hPa 0,0 l/m² 0 min 287 W/m² 6,4 km/h (2 Bft) 97,87 %
16.04.2026 12:44 17,4 °C 17,8 °C 13,9 °C 70 % 1022,2 hPa 0,0 l/m² 0 min 286 W/m² 6,4 km/h (2 Bft) 100,00 %
16.04.2026 12:46 17,4 °C 17,8 °C 14,4 °C 70 % 1022,2 hPa 0,0 l/m² 0 min 294 W/m² 3,2 km/h (1 Bft) 100,00 %
16.04.2026 12:48 17,4 °C 18,3 °C 13,9 °C 70 % 1022,2 hPa 0,0 l/m² 0 min 298 W/m² 6,4 km/h (2 Bft) 98,00 %
16.04.2026 12:50 17,4 °C 18,3 °C 14,4 °C 70 % 1022,2 hPa 0,0 l/m² 0 min 333 W/m² 6,4 km/h (2 Bft) 100,00 %
16.04.2026 12:52 17,4 °C 19,4 °C 14,4 °C 70 % 1022,2 hPa 0,0 l/m² 2 min 429 W/m² 6,4 km/h (2 Bft) 100,00 %
16.04.2026 12:54 17,5 °C 20,0 °C 15,0 °C 70 % 1022,2 hPa 0,0 l/m² 2 min 404 W/m² 9,7 km/h (2 Bft) 100,00 %
16.04.2026 12:56 17,6 °C 20,0 °C 15,0 °C 69 % 1022,1 hPa 0,0 l/m² 2 min 411 W/m² 3,2 km/h (1 Bft) 100,00 %
16.04.2026 12:58 17,6 °C 20,6 °C 15,6 °C 70 % 1022,1 hPa 0,0 l/m² 2 min 500 W/m² 6,4 km/h (2 Bft) 100,00 %
16.04.2026 13:00 17,7 °C 20,6 °C 15,6 °C 69 % 1022,1 hPa 0,0 l/m² 2 min 466 W/m² 9,7 km/h (2 Bft) 97,87 %
16.04.2026 13:02 17,7 °C 20,6 °C 15,6 °C 69 % 1022,1 hPa 0,0 l/m² 2 min 411 W/m² 9,7 km/h (2 Bft) 100,00 %
16.04.2026 13:04 17,8 °C 21,1 °C 16,1 °C 69 % 1022,2 hPa 0,0 l/m² 2 min 433 W/m² 6,4 km/h (2 Bft) 100,00 %
16.04.2026 13:06 17,9 °C 20,6 °C 15,6 °C 69 % 1022,2 hPa 0,0 l/m² 0 min 333 W/m² 6,4 km/h (2 Bft) 100,00 %
16.04.2026 13:08 18,0 °C 19,4 °C 15,6 °C 70 % 1022,2 hPa 0,0 l/m² 0 min 234 W/m² 16,1 km/h (3 Bft) 97,14 %
16.04.2026 13:10 17,9 °C 18,9 °C 15,0 °C 69 % 1022,2 hPa 0,0 l/m² 0 min 189 W/m² 9,7 km/h (2 Bft) 100,00 %
16.04.2026 13:12 17,8 °C 18,3 °C 15,0 °C 68 % 1022,2 hPa 0,0 l/m² 0 min 159 W/m² 9,7 km/h (2 Bft) 100,00 %
16.04.2026 13:14 17,8 °C 17,8 °C 14,4 °C 68 % 1022,2 hPa 0,0 l/m² 0 min 147 W/m² 3,2 km/h (1 Bft) 100,00 %
16.04.2026 13:16 17,7 °C 17,8 °C 14,4 °C 69 % 1022,2 hPa 0,0 l/m² 0 min 132 W/m² 6,4 km/h (2 Bft) 97,87 %
16.04.2026 13:18 17,6 °C 17,2 °C 13,9 °C 68 % 1022,2 hPa 0,0 l/m² 0 min 125 W/m² 6,4 km/h (2 Bft) 96,00 %
16.04.2026 13:20 17,6 °C 17,2 °C 13,3 °C 69 % 1022,2 hPa 0,0 l/m² 0 min 128 W/m² 3,2 km/h (1 Bft) 97,87 %
16.04.2026 13:22 17,4 °C 17,2 °C 13,3 °C 69 % 1022,2 hPa 0,0 l/m² 0 min 147 W/m² 6,4 km/h (2 Bft) 100,00 %
16.04.2026 13:24 17,3 °C 17,2 °C 13,3 °C 69 % 1022,2 hPa 0,0 l/m² 0 min 204 W/m² 3,2 km/h (1 Bft) 94,34 %
16.04.2026 13:26 17,3 °C 19,4 °C 13,9 °C 69 % 1022,2 hPa 0,0 l/m² 0 min 302 W/m² 3,2 km/h (1 Bft) 98,08 %
16.04.2026 13:28 17,3 °C 21,1 °C 15,6 °C 70 % 1022,1 hPa 0,0 l/m² 0 min 336 W/m² 3,2 km/h (1 Bft) 97,87 %
16.04.2026 13:30 17,5 °C 22,2 °C 16,7 °C 70 % 1022,1 hPa 0,0 l/m² 2 min 823 W/m² 9,7 km/h (2 Bft) 97,87 %
16.04.2026 13:32 17,6 °C 22,8 °C 17,2 °C 70 % 1022,1 hPa 0,0 l/m² 2 min 498 W/m² 19,3 km/h (3 Bft) 95,74 %
16.04.2026 13:34 17,8 °C 25,0 °C 17,8 °C 69 % 1022,1 hPa 0,0 l/m² 2 min 510 W/m² 12,9 km/h (3 Bft) 97,87 %
16.04.2026 13:36 18,0 °C 25,0 °C 17,8 °C 68 % 1022,1 hPa 0,0 l/m² 2 min 510 W/m² 6,4 km/h (2 Bft) 97,87 %
16.04.2026 13:38 18,2 °C 26,1 °C 18,9 °C 68 % 1022,1 hPa 0,0 l/m² 2 min 712 W/m² 6,4 km/h (2 Bft) 97,78 %
16.04.2026 13:40 18,4 °C 26,1 °C 18,9 °C 68 % 1022,1 hPa 0,0 l/m² 2 min 797 W/m² 9,7 km/h (2 Bft) 95,74 %
16.04.2026 13:42 18,6 °C 26,1 °C 18,9 °C 68 % 1022,1 hPa 0,0 l/m² 2 min 751 W/m² 9,7 km/h (2 Bft) 95,74 %
16.04.2026 13:44 18,8 °C 26,1 °C 18,9 °C 67 % 1022,1 hPa 0,0 l/m² 2 min 688 W/m² 9,7 km/h (2 Bft) 97,83 %
16.04.2026 13:46 18,9 °C 24,4 °C 18,3 °C 66 % 1022,1 hPa 0,0 l/m² 2 min 573 W/m² 12,9 km/h (3 Bft) 95,74 %
16.04.2026 13:48 18,9 °C 23,3 °C 17,8 °C 66 % 1022,1 hPa 0,0 l/m² 2 min 494 W/m² 9,7 km/h (2 Bft) 100,00 %
16.04.2026 13:50 18,9 °C 23,3 °C 17,2 °C 66 % 1022,2 hPa 0,0 l/m² 2 min 471 W/m² 12,9 km/h (3 Bft) 94,29 %
16.04.2026 13:52 18,8 °C 22,8 °C 16,7 °C 66 % 1022,1 hPa 0,0 l/m² 2 min 546 W/m² 9,7 km/h (2 Bft) 94,34 %
16.04.2026 13:54 18,8 °C 22,8 °C 16,1 °C 66 % 1022,2 hPa 0,0 l/m² 2 min 543 W/m² 12,9 km/h (3 Bft) 94,00 %
16.04.2026 13:56 18,8 °C 23,3 °C 16,1 °C 65 % 1022,1 hPa 0,0 l/m² 2 min 647 W/m² 9,7 km/h (2 Bft) 93,62 %
16.04.2026 13:58 18,8 °C 22,2 °C 16,1 °C 64 % 1022,1 hPa 0,0 l/m² 2 min 571 W/m² 9,7 km/h (2 Bft) 93,62 %
16.04.2026 14:00 18,7 °C 21,7 °C 16,1 °C 65 % 1022,1 hPa 0,0 l/m² 2 min 403 W/m² 12,9 km/h (3 Bft) 96,00 %
16.04.2026 14:02 18,7 °C 23,3 °C 16,1 °C 65 % 1022,1 hPa 0,0 l/m² 2 min 563 W/m² 9,7 km/h (2 Bft) 93,48 %
16.04.2026 14:04 18,8 °C 25,0 °C 16,1 °C 66 % 1022,1 hPa 0,0 l/m² 2 min 835 W/m² 6,4 km/h (2 Bft) 96,00 %
16.04.2026 14:06 19,0 °C 25,0 °C 16,1 °C 66 % 1022,1 hPa 0,0 l/m² 2 min 751 W/m² 16,1 km/h (3 Bft) 96,00 %
16.04.2026 14:08 19,1 °C 25,0 °C 16,1 °C 65 % 1022,1 hPa 0,0 l/m² 2 min 728 W/m² 12,9 km/h (3 Bft) 94,29 %
16.04.2026 14:10 19,1 °C 25,0 °C 16,1 °C 63 % 1022,2 hPa 0,0 l/m² 2 min 718 W/m² 12,9 km/h (3 Bft) 95,74 %
16.04.2026 14:12 19,1 °C 24,4 °C 16,1 °C 63 % 1022,2 hPa 0,0 l/m² 2 min 654 W/m² 12,9 km/h (3 Bft) 96,00 %
16.04.2026 14:14 19,2 °C 25,0 °C 16,1 °C 63 % 1022,1 hPa 0,0 l/m² 2 min 726 W/m² 6,4 km/h (2 Bft) 91,49 %
16.04.2026 14:16 19,1 °C 23,3 °C 15,6 °C 63 % 1022,1 hPa 0,0 l/m² 2 min 595 W/m² 6,4 km/h (2 Bft) 96,15 %
16.04.2026 14:18 19,2 °C 22,8 °C 15,6 °C 63 % 1022,1 hPa 0,0 l/m² 0 min 333 W/m² 12,9 km/h (3 Bft) 95,74 %
16.04.2026 14:20 19,2 °C 21,7 °C 16,1 °C 64 % 1022,1 hPa 0,0 l/m² 0 min 320 W/m² 3,2 km/h (1 Bft) 94,00 %
16.04.2026 14:22 19,2 °C 21,1 °C 15,6 °C 64 % 1022,1 hPa 0,0 l/m² 0 min 346 W/m² 6,4 km/h (2 Bft) 97,14 %
16.04.2026 14:24 19,1 °C 21,1 °C 15,6 °C 64 % 1022,2 hPa 0,0 l/m² 0 min 330 W/m² 9,7 km/h (2 Bft) 93,62 %
16.04.2026 14:26 19,1 °C 21,7 °C 15,6 °C 63 % 1022,2 hPa 0,0 l/m² 0 min 338 W/m² 6,4 km/h (2 Bft) 95,74 %
16.04.2026 14:28 19,0 °C 21,7 °C 15,6 °C 63 % 1022,1 hPa 0,0 l/m² 0 min 346 W/m² 12,9 km/h (3 Bft) 94,00 %
16.04.2026 14:30 18,9 °C 21,1 °C 15,6 °C 64 % 1022,1 hPa 0,0 l/m² 2 min 404 W/m² 6,4 km/h (2 Bft) 93,62 %
16.04.2026 14:32 18,9 °C 21,1 °C 15,0 °C 64 % 1022,2 hPa 0,0 l/m² 0 min 338 W/m² 12,9 km/h (3 Bft) 95,92 %
16.04.2026 14:34 18,9 °C 21,7 °C 15,0 °C 63 % 1022,1 hPa 0,0 l/m² 2 min 365 W/m² 6,4 km/h (2 Bft) 96,00 %
16.04.2026 14:36 18,8 °C 22,2 °C 15,0 °C 63 % 1022,1 hPa 0,0 l/m² 2 min 782 W/m² 6,4 km/h (2 Bft) 97,62 %
16.04.2026 14:38 18,8 °C 23,9 °C 15,0 °C 65 % 1022,1 hPa 0,0 l/m² 2 min 766 W/m² 6,4 km/h (2 Bft) 98,00 %
16.04.2026 14:40 18,9 °C 24,4 °C 15,6 °C 64 % 1022,0 hPa 0,0 l/m² 2 min 661 W/m² 6,4 km/h (2 Bft) 98,00 %
16.04.2026 14:42 19,1 °C 23,3 °C 15,6 °C 64 % 1022,1 hPa 0,0 l/m² 0 min 284 W/m² 9,7 km/h (2 Bft) 91,67 %
16.04.2026 14:44 19,1 °C 22,2 °C 15,6 °C 64 % 1022,1 hPa 0,0 l/m² 0 min 290 W/m² 6,4 km/h (2 Bft) 98,36 %
16.04.2026 14:46 19,1 °C 21,7 °C 15,6 °C 63 % 1022,1 hPa 0,0 l/m² 0 min 315 W/m² 3,2 km/h (1 Bft) 97,87 %
16.04.2026 14:48 19,1 °C 21,1 °C 15,6 °C 63 % 1022,2 hPa 0,0 l/m² 2 min 365 W/m² 6,4 km/h (2 Bft) 94,34 %
16.04.2026 14:50 19,1 °C 22,8 °C 15,6 °C 63 % 1022,2 hPa 0,0 l/m² 2 min 535 W/m² 12,9 km/h (3 Bft) 95,92 %
16.04.2026 14:52 19,1 °C 23,9 °C 15,6 °C 64 % 1022,1 hPa 0,0 l/m² 2 min 805 W/m² 6,4 km/h (2 Bft) 97,87 %
16.04.2026 14:54 19,2 °C 23,9 °C 16,1 °C 63 % 1022,1 hPa 0,0 l/m² 2 min 805 W/m² 6,4 km/h (2 Bft) 100,00 %
16.04.2026 14:56 19,3 °C 25,0 °C 16,1 °C 64 % 1022,0 hPa 0,0 l/m² 2 min 804 W/m² 9,7 km/h (2 Bft) 100,00 %
16.04.2026 14:58 19,4 °C 25,0 °C 16,1 °C 63 % 1022,0 hPa 0,0 l/m² 2 min 721 W/m² 3,2 km/h (1 Bft) 100,00 %
16.04.2026 15:00 19,5 °C 25,0 °C 16,1 °C 63 % 1022,0 hPa 0,0 l/m² 2 min 444 W/m² 9,7 km/h (2 Bft) 98,00 %
16.04.2026 15:02 19,6 °C 26,1 °C 16,1 °C 63 % 1022,0 hPa 0,0 l/m² 2 min 655 W/m² 9,7 km/h (2 Bft) 100,00 %
16.04.2026 15:04 19,7 °C 25,0 °C 16,1 °C 62 % 1022,0 hPa 0,0 l/m² 2 min 605 W/m² 12,9 km/h (3 Bft) 100,00 %
16.04.2026 15:06 19,8 °C 23,9 °C 16,1 °C 62 % 1022,0 hPa 0,0 l/m² 2 min 413 W/m² 12,9 km/h (3 Bft) 100,00 %
16.04.2026 15:08 19,8 °C 23,9 °C 16,1 °C 62 % 1022,0 hPa 0,0 l/m² 2 min 369 W/m² 9,7 km/h (2 Bft) 100,00 %
16.04.2026 15:10 19,8 °C 23,9 °C 16,1 °C 62 % 1022,0 hPa 0,0 l/m² 2 min 411 W/m² 6,4 km/h (2 Bft) 100,00 %
16.04.2026 15:12 19,8 °C 23,9 °C 16,1 °C 62 % 1022,0 hPa 0,0 l/m² 2 min 497 W/m² 6,4 km/h (2 Bft) 100,00 %
16.04.2026 15:14 19,8 °C 23,9 °C 16,1 °C 61 % 1022,0 hPa 0,0 l/m² 2 min 622 W/m² 6,4 km/h (2 Bft) 100,00 %
16.04.2026 15:16 19,9 °C 25,0 °C 16,1 °C 62 % 1021,9 hPa 0,0 l/m² 2 min 632 W/m² 3,2 km/h (1 Bft) 98,11 %
16.04.2026 15:18 19,9 °C 25,6 °C 16,1 °C 61 % 1021,9 hPa 0,0 l/m² 2 min 803 W/m² 6,4 km/h (2 Bft) 100,00 %
16.04.2026 15:20 20,0 °C 26,7 °C 16,7 °C 62 % 1021,9 hPa 0,0 l/m² 2 min 840 W/m² 6,4 km/h (2 Bft) 100,00 %
16.04.2026 15:22 20,1 °C 26,7 °C 16,7 °C 62 % 1021,9 hPa 0,0 l/m² 2 min 772 W/m² 6,4 km/h (2 Bft) 97,83 %
16.04.2026 15:24 20,2 °C 25,0 °C 16,7 °C 62 % 1021,9 hPa 0,0 l/m² 2 min 403 W/m² 6,4 km/h (2 Bft) 95,74 %
16.04.2026 15:26 20,2 °C 24,4 °C 16,7 °C 61 % 1021,8 hPa 0,0 l/m² 2 min 500 W/m² 9,7 km/h (2 Bft) 94,74 %
16.04.2026 15:28 20,3 °C 23,9 °C 16,7 °C 62 % 1021,9 hPa 0,0 l/m² 2 min 423 W/m² 19,3 km/h (3 Bft) 96,00 %
16.04.2026 15:30 20,3 °C 22,8 °C 16,1 °C 61 % 1021,8 hPa 0,0 l/m² 0 min 296 W/m² 9,7 km/h (2 Bft) 97,56 %
16.04.2026 15:32 20,3 °C 22,8 °C 16,1 °C 61 % 1021,8 hPa 0,0 l/m² 0 min 293 W/m² 12,9 km/h (3 Bft) 97,87 %
16.04.2026 15:34 20,2 °C 23,9 °C 16,1 °C 62 % 1021,8 hPa 0,0 l/m² 2 min 551 W/m² 9,7 km/h (2 Bft) 96,23 %
16.04.2026 15:36 20,3 °C 24,4 °C 16,1 °C 61 % 1021,8 hPa 0,0 l/m² 2 min 648 W/m² 6,4 km/h (2 Bft) 98,00 %
16.04.2026 15:38 20,2 °C 23,9 °C 16,1 °C 61 % 1021,8 hPa 0,0 l/m² 2 min 506 W/m² 3,2 km/h (1 Bft) 100,00 %
16.04.2026 15:40 20,2 °C 23,3 °C 16,1 °C 61 % 1021,8 hPa 0,0 l/m² 2 min 332 W/m² 3,2 km/h (1 Bft) 96,23 %
16.04.2026 15:42 20,2 °C 23,9 °C 16,1 °C 61 % 1021,8 hPa 0,0 l/m² 2 min 390 W/m² 6,4 km/h (2 Bft) 100,00 %
16.04.2026 15:44 20,2 °C 23,3 °C 16,1 °C 61 % 1021,7 hPa 0,0 l/m² 2 min 360 W/m² 9,7 km/h (2 Bft) 95,08 %
16.04.2026 15:46 20,2 °C 23,3 °C 16,1 °C 61 % 1021,8 hPa 0,0 l/m² 0 min 302 W/m² 6,4 km/h (2 Bft) 97,37 %
16.04.2026 15:48 20,1 °C 23,3 °C 15,6 °C 61 % 1021,7 hPa 0,0 l/m² 0 min 310 W/m² 12,9 km/h (3 Bft) 98,00 %
16.04.2026 15:50 20,1 °C 23,3 °C 16,1 °C 61 % 1021,8 hPa 0,0 l/m² 2 min 353 W/m² 6,4 km/h (2 Bft) 97,87 %
16.04.2026 15:52 20,0 °C 23,9 °C 16,1 °C 62 % 1021,7 hPa 0,0 l/m² 2 min 729 W/m² 3,2 km/h (1 Bft) 97,87 %
16.04.2026 15:54 20,1 °C 24,4 °C 16,7 °C 63 % 1021,7 hPa 0,0 l/m² 2 min 589 W/m² 6,4 km/h (2 Bft) 98,00 %
16.04.2026 15:56 20,2 °C 25,0 °C 16,7 °C 62 % 1021,7 hPa 0,0 l/m² 2 min 394 W/m² 6,4 km/h (2 Bft) 100,00 %
16.04.2026 15:58 20,3 °C 25,0 °C 16,7 °C 62 % 1021,7 hPa 0,0 l/m² 2 min 419 W/m² 9,7 km/h (2 Bft) 100,00 %
16.04.2026 16:00 20,3 °C 25,0 °C 16,7 °C 61 % 1021,7 hPa 0,0 l/m² 2 min 487 W/m² 9,7 km/h (2 Bft) 100,00 %
16.04.2026 16:02 20,3 °C 25,0 °C 16,7 °C 61 % 1021,7 hPa 0,0 l/m² 2 min 670 W/m² 6,4 km/h (2 Bft) 100,00 %
16.04.2026 16:04 20,4 °C 26,7 °C 17,2 °C 62 % 1021,7 hPa 0,0 l/m² 2 min 707 W/m² 12,9 km/h (3 Bft) 100,00 %
16.04.2026 16:06 20,6 °C 26,1 °C 17,2 °C 62 % 1021,7 hPa 0,0 l/m² 2 min 707 W/m² 9,7 km/h (2 Bft) 100,00 %
16.04.2026 16:08 20,6 °C 26,1 °C 16,7 °C 60 % 1021,7 hPa 0,0 l/m² 2 min 486 W/m² 6,4 km/h (2 Bft) 100,00 %
16.04.2026 16:10 20,7 °C 26,7 °C 16,7 °C 60 % 1021,6 hPa 0,0 l/m² 2 min 656 W/m² 6,4 km/h (2 Bft) 100,00 %
16.04.2026 16:12 20,7 °C 26,7 °C 17,2 °C 61 % 1021,6 hPa 0,0 l/m² 2 min 734 W/m² 6,4 km/h (2 Bft) 100,00 %
16.04.2026 16:14 20,8 °C 25,6 °C 17,2 °C 60 % 1021,6 hPa 0,0 l/m² 2 min 491 W/m² 6,4 km/h (2 Bft) 100,00 %
16.04.2026 16:16 20,9 °C 23,9 °C 16,7 °C 59 % 1021,6 hPa 0,0 l/m² 0 min 270 W/m² 3,2 km/h (1 Bft) 100,00 %
16.04.2026 16:18 20,8 °C 23,3 °C 16,7 °C 60 % 1021,7 hPa 0,0 l/m² 2 min 428 W/m² 9,7 km/h (2 Bft) 97,87 %
16.04.2026 16:20 20,6 °C 22,2 °C 16,7 °C 60 % 1021,7 hPa 0,0 l/m² 2 min 455 W/m² 3,2 km/h (1 Bft) 100,00 %
16.04.2026 16:22 20,6 °C 24,4 °C 16,7 °C 61 % 1021,6 hPa 0,0 l/m² 2 min 687 W/m² 6,4 km/h (2 Bft) 97,87 %
16.04.2026 16:24 20,6 °C 26,1 °C 16,7 °C 60 % 1021,6 hPa 0,0 l/m² 2 min 767 W/m² 6,4 km/h (2 Bft) 97,87 %
16.04.2026 16:26 20,7 °C 26,7 °C 17,2 °C 61 % 1021,6 hPa 0,0 l/m² 2 min 758 W/m² 9,7 km/h (2 Bft) 97,87 %
16.04.2026 16:28 20,9 °C 26,7 °C 17,2 °C 61 % 1021,6 hPa 0,0 l/m² 2 min 715 W/m² 6,4 km/h (2 Bft) 95,74 %
16.04.2026 16:30 21,0 °C 24,4 °C 17,2 °C 60 % 1021,5 hPa 0,0 l/m² 0 min 258 W/m² 6,4 km/h (2 Bft) 97,87 %
16.04.2026 16:32 20,8 °C 22,8 °C 16,7 °C 59 % 1021,5 hPa 0,0 l/m² 0 min 206 W/m² 3,2 km/h (1 Bft) 95,74 %
16.04.2026 16:34 20,7 °C 21,7 °C 16,7 °C 59 % 1021,5 hPa 0,0 l/m² 0 min 181 W/m² 6,4 km/h (2 Bft) 95,65 %
16.04.2026 16:36 20,6 °C 21,7 °C 16,1 °C 59 % 1021,5 hPa 0,0 l/m² 2 min 287 W/m² 3,2 km/h (1 Bft) 97,87 %
16.04.2026 16:38 20,4 °C 21,1 °C 16,1 °C 60 % 1021,5 hPa 0,0 l/m² 0 min 255 W/m² 9,7 km/h (2 Bft) 97,87 %
16.04.2026 16:40 20,3 °C 21,1 °C 16,1 °C 61 % 1021,5 hPa 0,0 l/m² 0 min 246 W/m² 6,4 km/h (2 Bft) 97,87 %
16.04.2026 16:42 20,2 °C 21,1 °C 15,6 °C 61 % 1021,5 hPa 0,0 l/m² 0 min 232 W/m² 9,7 km/h (2 Bft) 96,00 %
16.04.2026 16:44 20,1 °C 20,0 °C 15,6 °C 61 % 1021,5 hPa 0,0 l/m² 0 min 178 W/m² 6,4 km/h (2 Bft) 98,00 %
16.04.2026 16:46 19,9 °C 20,0 °C 15,6 °C 62 % 1021,5 hPa 0,0 l/m² 0 min 152 W/m² 9,7 km/h (2 Bft) 97,87 %
16.04.2026 16:48 19,8 °C 20,0 °C 15,6 °C 62 % 1021,4 hPa 0,0 l/m² 0 min 152 W/m² 12,9 km/h (3 Bft) 97,37 %
16.04.2026 16:50 19,8 °C 19,4 °C 15,6 °C 62 % 1021,5 hPa 0,0 l/m² 0 min 152 W/m² 9,7 km/h (2 Bft) 95,74 %
16.04.2026 16:52 19,8 °C 19,4 °C 15,6 °C 62 % 1021,5 hPa 0,0 l/m² 0 min 147 W/m² 9,7 km/h (2 Bft) 97,87 %
16.04.2026 16:54 19,6 °C 18,9 °C 15,0 °C 61 % 1021,5 hPa 0,0 l/m² 0 min 135 W/m² 6,4 km/h (2 Bft) 97,83 %
16.04.2026 16:56 19,5 °C 18,9 °C 15,0 °C 62 % 1021,5 hPa 0,0 l/m² 0 min 144 W/m² 6,4 km/h (2 Bft) 98,00 %
16.04.2026 16:58 19,5 °C 19,4 °C 15,0 °C 63 % 1021,5 hPa 0,0 l/m² 0 min 167 W/m² 6,4 km/h (2 Bft) 97,87 %
16.04.2026 17:00 19,4 °C 19,4 °C 15,0 °C 62 % 1021,4 hPa 0,0 l/m² 0 min 209 W/m² 6,4 km/h (2 Bft) 96,00 %
16.04.2026 17:02 19,3 °C 18,9 °C 15,0 °C 62 % 1021,5 hPa 0,0 l/m² 0 min 210 W/m² 9,7 km/h (2 Bft) 98,00 %
16.04.2026 17:04 19,2 °C 19,4 °C 15,0 °C 63 % 1021,5 hPa 0,0 l/m² 0 min 219 W/m² 3,2 km/h (1 Bft) 93,62 %
16.04.2026 17:06 19,2 °C 19,4 °C 15,0 °C 64 % 1021,5 hPa 0,0 l/m² 0 min 239 W/m² 6,4 km/h (2 Bft) 93,88 %
16.04.2026 17:08 19,1 °C 20,0 °C 15,0 °C 63 % 1021,4 hPa 0,0 l/m² 0 min 239 W/m² 6,4 km/h (2 Bft) 100,00 %
16.04.2026 17:10 19,1 °C 20,0 °C 15,6 °C 63 % 1021,5 hPa 0,0 l/m² 0 min 226 W/m² 9,7 km/h (2 Bft) 100,00 %
16.04.2026 17:12 19,2 °C 20,0 °C 15,6 °C 63 % 1021,5 hPa 0,0 l/m² 0 min 220 W/m² 12,9 km/h (3 Bft) 100,00 %
16.04.2026 17:14 19,2 °C 22,2 °C 15,6 °C 63 % 1021,5 hPa 0,0 l/m² 0 min 221 W/m² 6,4 km/h (2 Bft) 95,74 %
16.04.2026 17:16 19,3 °C 23,3 °C 15,6 °C 62 % 1021,4 hPa 0,0 l/m² 2 min 515 W/m² 3,2 km/h (1 Bft) 100,00 %
16.04.2026 17:18 19,4 °C 25,0 °C 15,6 °C 63 % 1021,4 hPa 0,0 l/m² 2 min 539 W/m² 3,2 km/h (1 Bft) 97,87 %
16.04.2026 17:20 19,6 °C 25,0 °C 16,1 °C 62 % 1021,4 hPa 0,0 l/m² 2 min 513 W/m² 6,4 km/h (2 Bft) 100,00 %
16.04.2026 17:22 19,8 °C 26,1 °C 16,7 °C 63 % 1021,3 hPa 0,0 l/m² 2 min 481 W/m² 9,7 km/h (2 Bft) 96,00 %
16.04.2026 17:24 20,1 °C 26,1 °C 16,7 °C 61 % 1021,3 hPa 0,0 l/m² 2 min 476 W/m² 9,7 km/h (2 Bft) 97,96 %
16.04.2026 17:26 20,2 °C 26,1 °C 16,7 °C 60 % 1021,4 hPa 0,0 l/m² 2 min 457 W/m² 12,9 km/h (3 Bft) 97,87 %
16.04.2026 17:28 20,3 °C 25,0 °C 16,1 °C 60 % 1021,3 hPa 0,0 l/m² 2 min 414 W/m² 6,4 km/h (2 Bft) 97,87 %
16.04.2026 17:30 20,4 °C 23,9 °C 16,1 °C 60 % 1021,3 hPa 0,0 l/m² 2 min 227 W/m² 12,9 km/h (3 Bft) 95,74 %
16.04.2026 17:32 20,4 °C 23,3 °C 16,1 °C 61 % 1021,3 hPa 0,0 l/m² 2 min 334 W/m² 12,9 km/h (3 Bft) 95,74 %
16.04.2026 17:34 20,4 °C 22,2 °C 16,1 °C 60 % 1021,4 hPa 0,0 l/m² 0 min 130 W/m² 12,9 km/h (3 Bft) 94,74 %
16.04.2026 17:36 20,4 °C 21,1 °C 16,1 °C 60 % 1021,4 hPa 0,0 l/m² 0 min 128 W/m² 6,4 km/h (2 Bft) 95,74 %
16.04.2026 17:38 20,3 °C 21,1 °C 15,6 °C 60 % 1021,4 hPa 0,0 l/m² 0 min 160 W/m² 3,2 km/h (1 Bft) 95,74 %
16.04.2026 17:40 20,3 °C 22,2 °C 15,6 °C 60 % 1021,4 hPa 0,0 l/m² 0 min 193 W/m² 3,2 km/h (1 Bft) 95,74 %
16.04.2026 17:42 20,3 °C 22,8 °C 15,6 °C 60 % 1021,4 hPa 0,0 l/m² 2 min 394 W/m² 6,4 km/h (2 Bft) 95,65 %
16.04.2026 17:44 20,3 °C 22,8 °C 15,6 °C 60 % 1021,4 hPa 0,0 l/m² 2 min 394 W/m² 3,2 km/h (1 Bft) 95,74 %
16.04.2026 17:46 20,4 °C 23,3 °C 16,1 °C 61 % 1021,4 hPa 0,0 l/m² 2 min 476 W/m² 3,2 km/h (1 Bft) 91,49 %
16.04.2026 17:48 20,5 °C 22,8 °C 16,1 °C 61 % 1021,4 hPa 0,0 l/m² 2 min 236 W/m² 3,2 km/h (1 Bft) 95,74 %
16.04.2026 17:50 20,6 °C 23,3 °C 16,1 °C 61 % 1021,4 hPa 0,0 l/m² 2 min 233 W/m² 9,7 km/h (2 Bft) 92,00 %
16.04.2026 17:52 20,7 °C 24,4 °C 16,7 °C 60 % 1021,4 hPa 0,0 l/m² 2 min 234 W/m² 3,2 km/h (1 Bft) 94,44 %
16.04.2026 17:54 20,8 °C 24,4 °C 16,7 °C 60 % 1021,4 hPa 0,0 l/m² 2 min 360 W/m² 6,4 km/h (2 Bft) 97,14 %
16.04.2026 17:56 20,9 °C 25,0 °C 16,7 °C 59 % 1021,4 hPa 0,0 l/m² 2 min 433 W/m² 9,7 km/h (2 Bft) 93,10 %
16.04.2026 17:58 21,0 °C 25,0 °C 16,7 °C 59 % 1021,4 hPa 0,0 l/m² 2 min 393 W/m² 6,4 km/h (2 Bft) 94,87 %
16.04.2026 18:00 21,1 °C 25,0 °C 16,7 °C 59 % 1021,3 hPa 0,0 l/m² 2 min 334 W/m² 3,2 km/h (1 Bft) 95,65 %
16.04.2026 18:02 21,3 °C 23,9 °C 16,7 °C 58 % 1021,4 hPa 0,0 l/m² 2 min 217 W/m² 9,7 km/h (2 Bft) 95,74 %
16.04.2026 18:04 21,3 °C 22,8 °C 16,1 °C 58 % 1021,4 hPa 0,0 l/m² 0 min 154 W/m² 6,4 km/h (2 Bft) 91,49 %
16.04.2026 18:06 21,2 °C 21,7 °C 16,1 °C 58 % 1021,3 hPa 0,0 l/m² 0 min 165 W/m² 3,2 km/h (1 Bft) 97,92 %
16.04.2026 18:08 21,1 °C 22,2 °C 16,1 °C 59 % 1021,4 hPa 0,0 l/m² 0 min 167 W/m² 3,2 km/h (1 Bft) 97,87 %
16.04.2026 18:10 21,1 °C 23,3 °C 16,1 °C 60 % 1021,4 hPa 0,0 l/m² 2 min 278 W/m² 6,4 km/h (2 Bft) 97,87 %
16.04.2026 18:12 20,9 °C 23,9 °C 16,1 °C 60 % 1021,4 hPa 0,0 l/m² 2 min 394 W/m² 3,2 km/h (1 Bft) 97,87 %
16.04.2026 18:14 20,9 °C 23,3 °C 16,1 °C 59 % 1021,4 hPa 0,0 l/m² 2 min 353 W/m² 6,4 km/h (2 Bft) 96,00 %
16.04.2026 18:16 20,8 °C 22,8 °C 16,1 °C 59 % 1021,4 hPa 0,0 l/m² 2 min 206 W/m² 9,7 km/h (2 Bft) 97,83 %
16.04.2026 18:18 20,8 °C 22,8 °C 16,1 °C 59 % 1021,4 hPa 0,0 l/m² 2 min 257 W/m² 6,4 km/h (2 Bft) 95,74 %
16.04.2026 18:20 20,8 °C 23,3 °C 16,1 °C 58 % 1021,4 hPa 0,0 l/m² 2 min 351 W/m² 3,2 km/h (1 Bft) 100,00 %
16.04.2026 18:22 20,7 °C 23,3 °C 15,6 °C 59 % 1021,4 hPa 0,0 l/m² 2 min 298 W/m² 6,4 km/h (2 Bft) 100,00 %
16.04.2026 18:24 20,7 °C 22,8 °C 15,6 °C 59 % 1021,4 hPa 0,0 l/m² 2 min 223 W/m² 6,4 km/h (2 Bft) 100,00 %
16.04.2026 18:26 20,6 °C 21,1 °C 15,6 °C 59 % 1021,4 hPa 0,0 l/m² 0 min 94 W/m² 6,4 km/h (2 Bft) 100,00 %
16.04.2026 18:28 20,6 °C 21,1 °C 15,6 °C 59 % 1021,4 hPa 0,0 l/m² 0 min 102 W/m² 6,4 km/h (2 Bft) 100,00 %
16.04.2026 18:30 20,5 °C 21,7 °C 15,6 °C 59 % 1021,3 hPa 0,0 l/m² 0 min 120 W/m² 3,2 km/h (1 Bft) 97,87 %
16.04.2026 18:32 20,5 °C 22,8 °C 15,6 °C 60 % 1021,4 hPa 0,0 l/m² 2 min 239 W/m² 3,2 km/h (1 Bft) 100,00 %
16.04.2026 18:34 20,4 °C 23,3 °C 15,6 °C 60 % 1021,3 hPa 0,0 l/m² 2 min 273 W/m² 6,4 km/h (2 Bft) 100,00 %
16.04.2026 18:36 20,4 °C 22,8 °C 15,6 °C 60 % 1021,4 hPa 0,0 l/m² 2 min 182 W/m² 3,2 km/h (1 Bft) 100,00 %
16.04.2026 18:38 20,4 °C 21,7 °C 15,6 °C 60 % 1021,4 hPa 0,0 l/m² 2 min 144 W/m² 3,2 km/h (1 Bft) 100,00 %
16.04.2026 18:40 20,3 °C 21,1 °C 15,6 °C 60 % 1021,4 hPa 0,0 l/m² 2 min 208 W/m² 6,4 km/h (2 Bft) 100,00 %
16.04.2026 18:42 20,2 °C 20,6 °C 15,6 °C 60 % 1021,4 hPa 0,0 l/m² 2 min 198 W/m² 6,4 km/h (2 Bft) 100,00 %
16.04.2026 18:44 20,2 °C 20,6 °C 15,6 °C 61 % 1021,3 hPa 0,0 l/m² 0 min 103 W/m² 0,0 km/h (0 Bft) 100,00 %
16.04.2026 18:46 20,1 °C 20,0 °C 15,0 °C 60 % 1021,4 hPa 0,0 l/m² 0 min 86 W/m² 3,2 km/h (1 Bft) 100,00 %
16.04.2026 18:48 20,1 °C 19,4 °C 15,0 °C 60 % 1021,4 hPa 0,0 l/m² 0 min 81 W/m² 0,0 km/h (0 Bft) 98,11 %
16.04.2026 18:50 20,1 °C 19,4 °C 15,0 °C 61 % 1021,4 hPa 0,0 l/m² 0 min 73 W/m² 0,0 km/h (0 Bft) 100,00 %
16.04.2026 18:52 19,9 °C 18,9 °C 15,0 °C 61 % 1021,3 hPa 0,0 l/m² 0 min 62 W/m² 0,0 km/h (0 Bft) 100,00 %
16.04.2026 18:54 19,9 °C 18,9 °C 14,4 °C 62 % 1021,4 hPa 0,0 l/m² 0 min 53 W/m² 0,0 km/h (0 Bft) 100,00 %
16.04.2026 18:56 19,9 °C 18,9 °C 14,4 °C 62 % 1021,3 hPa 0,0 l/m² 0 min 49 W/m² 0,0 km/h (0 Bft) 97,87 %
16.04.2026 18:58 19,7 °C 18,3 °C 14,4 °C 62 % 1021,3 hPa 0,0 l/m² 0 min 52 W/m² 0,0 km/h (0 Bft) 95,74 %
16.04.2026 19:00 19,6 °C 18,3 °C 14,4 °C 63 % 1021,3 hPa 0,0 l/m² 0 min 54 W/m² 6,4 km/h (2 Bft) 97,87 %
16.04.2026 19:02 19,6 °C 18,3 °C 13,9 °C 63 % 1021,3 hPa 0,0 l/m² 0 min 58 W/m² 3,2 km/h (1 Bft) 97,87 %
16.04.2026 19:04 19,5 °C 18,3 °C 13,9 °C 63 % 1021,3 hPa 0,0 l/m² 0 min 60 W/m² 6,4 km/h (2 Bft) 97,87 %
16.04.2026 19:06 19,4 °C 18,3 °C 13,9 °C 63 % 1021,3 hPa 0,0 l/m² 0 min 66 W/m² 3,2 km/h (1 Bft) 95,92 %
16.04.2026 19:08 19,3 °C 18,3 °C 13,9 °C 63 % 1021,3 hPa 0,0 l/m² 0 min 77 W/m² 0,0 km/h (0 Bft) 97,87 %
16.04.2026 19:10 19,2 °C 18,3 °C 13,9 °C 64 % 1021,3 hPa 0,0 l/m² 0 min 68 W/m² 3,2 km/h (1 Bft) 97,87 %
16.04.2026 19:12 19,2 °C 18,3 °C 13,9 °C 64 % 1021,3 hPa 0,0 l/m² 0 min 52 W/m² 0,0 km/h (0 Bft) 97,87 %
16.04.2026 19:14 19,2 °C 17,8 °C 13,9 °C 64 % 1021,3 hPa 0,0 l/m² 0 min 38 W/m² 0,0 km/h (0 Bft) 97,87 %
16.04.2026 19:16 19,1 °C 17,8 °C 13,9 °C 64 % 1021,3 hPa 0,0 l/m² 0 min 33 W/m² 3,2 km/h (1 Bft) 97,67 %
16.04.2026 19:18 19,1 °C 17,8 °C 13,9 °C 65 % 1021,3 hPa 0,0 l/m² 0 min 32 W/m² 6,4 km/h (2 Bft) 97,87 %
16.04.2026 19:20 19,1 °C 17,8 °C 13,9 °C 65 % 1021,2 hPa 0,0 l/m² 0 min 32 W/m² 3,2 km/h (1 Bft) 95,65 %
16.04.2026 19:22 19,0 °C 17,2 °C 13,3 °C 65 % 1021,3 hPa 0,0 l/m² 0 min 33 W/m² 0,0 km/h (0 Bft) 95,74 %
16.04.2026 19:24 18,9 °C 17,2 °C 13,3 °C 65 % 1021,2 hPa 0,0 l/m² 0 min 35 W/m² 0,0 km/h (0 Bft) 93,62 %
16.04.2026 19:26 18,8 °C 17,2 °C 13,3 °C 66 % 1021,3 hPa 0,0 l/m² 0 min 35 W/m² 0,0 km/h (0 Bft) 97,87 %
16.04.2026 19:28 18,8 °C 17,2 °C 13,3 °C 66 % 1021,2 hPa 0,0 l/m² 0 min 37 W/m² 0,0 km/h (0 Bft) 97,87 %
16.04.2026 19:30 18,7 °C 17,2 °C 13,3 °C 66 % 1021,2 hPa 0,0 l/m² 0 min 34 W/m² 0,0 km/h (0 Bft) 95,74 %
16.04.2026 19:32 18,6 °C 17,2 °C 13,3 °C 66 % 1021,2 hPa 0,0 l/m² 0 min 33 W/m² 0,0 km/h (0 Bft) 97,83 %
16.04.2026 19:34 18,6 °C 17,2 °C 13,3 °C 66 % 1021,2 hPa 0,0 l/m² 0 min 32 W/m² 0,0 km/h (0 Bft) 93,62 %
16.04.2026 19:36 18,5 °C 16,7 °C 13,3 °C 66 % 1021,2 hPa 0,0 l/m² 0 min 30 W/m² 0,0 km/h (0 Bft) 95,74 %
16.04.2026 19:38 18,4 °C 16,7 °C 13,3 °C 66 % 1021,3 hPa 0,0 l/m² 0 min 29 W/m² 0,0 km/h (0 Bft) 96,00 %
16.04.2026 19:40 18,4 °C 16,7 °C 12,8 °C 66 % 1021,3 hPa 0,0 l/m² 0 min 27 W/m² 0,0 km/h (0 Bft) 94,74 %
16.04.2026 19:42 18,4 °C 16,7 °C 12,8 °C 67 % 1021,3 hPa 0,0 l/m² 0 min 25 W/m² 0,0 km/h (0 Bft) 96,55 %
16.04.2026 19:44 18,3 °C 16,7 °C 12,8 °C 67 % 1021,3 hPa 0,0 l/m² 0 min 23 W/m² 0,0 km/h (0 Bft) 97,22 %
16.04.2026 19:46 18,3 °C 16,7 °C 12,8 °C 67 % 1021,3 hPa 0,0 l/m² 0 min 21 W/m² 0,0 km/h (0 Bft) 95,65 %
16.04.2026 19:48 18,3 °C 16,7 °C 12,8 °C 67 % 1021,3 hPa 0,0 l/m² 0 min 19 W/m² 0,0 km/h (0 Bft) 97,87 %
16.04.2026 19:50 18,2 °C 16,7 °C 12,8 °C 67 % 1021,4 hPa 0,0 l/m² 0 min 18 W/m² 0,0 km/h (0 Bft) 97,87 %
16.04.2026 19:52 18,2 °C 16,7 °C 12,8 °C 67 % 1021,3 hPa 0,0 l/m² 0 min 16 W/m² 0,0 km/h (0 Bft) 97,87 %
16.04.2026 19:54 18,2 °C 16,7 °C 12,8 °C 68 % 1021,4 hPa 0,0 l/m² 0 min 12 W/m² 0,0 km/h (0 Bft) 95,74 %
16.04.2026 19:56 18,2 °C 16,7 °C 12,8 °C 68 % 1021,3 hPa 0,0 l/m² 0 min 12 W/m² 0,0 km/h (0 Bft) 95,74 %
16.04.2026 19:58 18,2 °C 16,1 °C 12,8 °C 68 % 1021,3 hPa 0,0 l/m² 0 min 12 W/m² 0,0 km/h (0 Bft) 97,83 %
16.04.2026 20:00 18,2 °C 16,1 °C 12,2 °C 69 % 1021,3 hPa 0,0 l/m² 0 min 12 W/m² 0,0 km/h (0 Bft) 97,87 %
16.04.2026 20:02 18,2 °C 16,1 °C 12,2 °C 69 % 1021,3 hPa 0,0 l/m² 0 min 12 W/m² 0,0 km/h (0 Bft) 97,87 %
16.04.2026 20:04 18,1 °C 16,1 °C 12,2 °C 68 % 1021,3 hPa 0,0 l/m² 0 min 12 W/m² 0,0 km/h (0 Bft) 97,87 %
16.04.2026 20:06 18,1 °C 16,1 °C 12,2 °C 68 % 1021,3 hPa 0,0 l/m² 0 min 11 W/m² 0,0 km/h (0 Bft) 96,55 %
16.04.2026 20:08 18,0 °C 16,1 °C 12,2 °C 68 % 1021,3 hPa 0,0 l/m² 0 min 11 W/m² 0,0 km/h (0 Bft) 100,00 %
16.04.2026 20:10 17,9 °C 16,1 °C 12,2 °C 68 % 1021,3 hPa 0,0 l/m² 0 min 10 W/m² 0,0 km/h (0 Bft) 97,96 %
16.04.2026 20:12 17,9 °C 16,1 °C 12,2 °C 69 % 1021,4 hPa 0,0 l/m² 0 min 9 W/m² 0,0 km/h (0 Bft) 100,00 %
16.04.2026 20:14 17,9 °C 16,1 °C 12,2 °C 70 % 1021,4 hPa 0,0 l/m² 0 min 8 W/m² 0,0 km/h (0 Bft) 100,00 %
16.04.2026 20:16 17,9 °C 16,1 °C 11,7 °C 71 % 1021,4 hPa 0,0 l/m² 0 min 7 W/m² 0,0 km/h (0 Bft) 100,00 %
16.04.2026 20:18 17,9 °C 15,6 °C 11,7 °C 71 % 1021,4 hPa 0,0 l/m² 0 min 7 W/m² 0,0 km/h (0 Bft) 98,00 %
16.04.2026 20:20 17,9 °C 15,6 °C 11,7 °C 72 % 1021,4 hPa 0,0 l/m² 0 min 7 W/m² 0,0 km/h (0 Bft) 95,92 %
16.04.2026 20:22 17,9 °C 15,6 °C 11,7 °C 73 % 1021,4 hPa 0,0 l/m² 0 min 6 W/m² 0,0 km/h (0 Bft) 100,00 %
16.04.2026 20:24 17,8 °C 15,6 °C 11,7 °C 73 % 1021,4 hPa 0,0 l/m² 0 min 5 W/m² 0,0 km/h (0 Bft) 97,87 %
16.04.2026 20:26 17,8 °C 15,6 °C 11,7 °C 74 % 1021,5 hPa 0,0 l/m² 0 min 4 W/m² 0,0 km/h (0 Bft) 98,00 %
16.04.2026 20:28 17,8 °C 15,6 °C 11,7 °C 74 % 1021,4 hPa 0,0 l/m² 0 min 0 W/m² 0,0 km/h (0 Bft) 97,87 %
16.04.2026 20:30 17,7 °C 15,6 °C 11,7 °C 75 % 1021,5 hPa 0,0 l/m² 0 min 0 W/m² 0,0 km/h (0 Bft) 93,62 %
16.04.2026 20:32 17,7 °C 15,6 °C 11,7 °C 75 % 1021,5 hPa 0,0 l/m² 0 min 0 W/m² 3,2 km/h (1 Bft) 93,88 %
16.04.2026 20:34 17,6 °C 15,0 °C 11,7 °C 74 % 1021,5 hPa 0,0 l/m² 0 min 0 W/m² 0,0 km/h (0 Bft) 95,74 %
16.04.2026 20:36 17,6 °C 15,0 °C 11,7 °C 74 % 1021,5 hPa 0,0 l/m² 0 min 0 W/m² 0,0 km/h (0 Bft) 97,87 %
16.04.2026 20:38 17,5 °C 15,0 °C 11,7 °C 74 % 1021,5 hPa 0,0 l/m² 0 min 0 W/m² 0,0 km/h (0 Bft) 97,87 %
16.04.2026 20:40 17,4 °C 15,0 °C 11,7 °C 74 % 1021,5 hPa 0,0 l/m² 0 min 0 W/m² 0,0 km/h (0 Bft) 97,87 %
16.04.2026 20:42 17,4 °C 15,0 °C 11,7 °C 75 % 1021,6 hPa 0,0 l/m² 0 min 0 W/m² 0,0 km/h (0 Bft) 97,87 %
16.04.2026 20:44 17,3 °C 15,0 °C 11,7 °C 75 % 1021,5 hPa 0,0 l/m² 0 min 0 W/m² 0,0 km/h (0 Bft) 97,83 %
16.04.2026 20:46 17,3 °C 15,0 °C 11,7 °C 75 % 1021,6 hPa 0,0 l/m² 0 min 0 W/m² 0,0 km/h (0 Bft) 97,87 %
16.04.2026 20:48 17,2 °C 15,0 °C 11,7 °C 76 % 1021,6 hPa 0,0 l/m² 0 min 0 W/m² 0,0 km/h (0 Bft) 97,87 %
16.04.2026 20:50 17,2 °C 15,0 °C 11,1 °C 76 % 1021,6 hPa 0,0 l/m² 0 min 0 W/m² 0,0 km/h (0 Bft) 97,87 %
16.04.2026 20:52 17,2 °C 15,0 °C 11,1 °C 76 % 1021,6 hPa 0,0 l/m² 0 min 0 W/m² 0,0 km/h (0 Bft) 97,87 %
16.04.2026 20:54 17,1 °C 15,0 °C 11,1 °C 76 % 1021,7 hPa 0,0 l/m² 0 min 0 W/m² 0,0 km/h (0 Bft) 97,87 %
16.04.2026 20:56 17,1 °C 15,0 °C 11,1 °C 76 % 1021,7 hPa 0,0 l/m² 0 min 0 W/m² 0,0 km/h (0 Bft) 97,83 %
16.04.2026 20:58 17,1 °C 15,0 °C 11,1 °C 77 % 1021,8 hPa 0,0 l/m² 0 min 0 W/m² 0,0 km/h (0 Bft) 97,56 %
16.04.2026 21:00 17,1 °C 15,0 °C 11,1 °C 77 % 1021,8 hPa 0,0 l/m² 0 min 0 W/m² 0,0 km/h (0 Bft) 98,00 %
16.04.2026 21:02 17,0 °C 15,0 °C 11,1 °C 77 % 1021,8 hPa 0,0 l/m² 0 min 0 W/m² 0,0 km/h (0 Bft) 94,00 %
16.04.2026 21:04 16,9 °C 15,0 °C 11,1 °C 78 % 1021,9 hPa 0,0 l/m² 0 min 0 W/m² 0,0 km/h (0 Bft) 100,00 %
16.04.2026 21:06 16,9 °C 15,0 °C 11,1 °C 77 % 1021,9 hPa 0,0 l/m² 0 min 0 W/m² 0,0 km/h (0 Bft) 100,00 %
16.04.2026 21:08 16,8 °C 15,0 °C 11,1 °C 77 % 1021,9 hPa 0,0 l/m² 0 min 0 W/m² 0,0 km/h (0 Bft) 97,37 %
16.04.2026 21:10 16,8 °C 15,0 °C 11,1 °C 77 % 1021,9 hPa 0,0 l/m² 0 min 0 W/m² 0,0 km/h (0 Bft) 100,00 %
16.04.2026 21:12 16,8 °C 15,0 °C 11,1 °C 78 % 1021,9 hPa 0,0 l/m² 0 min 0 W/m² 0,0 km/h (0 Bft) 100,00 %
16.04.2026 21:14 16,7 °C 15,0 °C 11,1 °C 78 % 1021,9 hPa 0,0 l/m² 0 min 0 W/m² 0,0 km/h (0 Bft) 95,74 %
16.04.2026 21:16 16,7 °C 15,0 °C 11,1 °C 78 % 1022,0 hPa 0,0 l/m² 0 min 0 W/m² 0,0 km/h (0 Bft) 100,00 %
16.04.2026 21:18 16,7 °C 15,0 °C 11,1 °C 78 % 1022,0 hPa 0,0 l/m² 0 min 0 W/m² 0,0 km/h (0 Bft) 97,87 %
16.04.2026 21:20 16,6 °C 15,0 °C 11,1 °C 78 % 1022,0 hPa 0,0 l/m² 0 min 0 W/m² 0,0 km/h (0 Bft) 100,00 %
16.04.2026 21:22 16,6 °C 14,4 °C 11,1 °C 78 % 1022,1 hPa 0,0 l/m² 0 min 0 W/m² 0,0 km/h (0 Bft) 100,00 %
16.04.2026 21:24 16,6 °C 14,4 °C 11,1 °C 79 % 1022,0 hPa 0,0 l/m² 0 min 0 W/m² 0,0 km/h (0 Bft) 97,87 %
16.04.2026 21:26 16,6 °C 14,4 °C 11,1 °C 79 % 1022,1 hPa 0,0 l/m² 0 min 0 W/m² 0,0 km/h (0 Bft) 97,87 %
16.04.2026 21:28 16,5 °C 14,4 °C 11,1 °C 79 % 1022,1 hPa 0,0 l/m² 0 min 0 W/m² 0,0 km/h (0 Bft) 97,87 %
16.04.2026 21:30 16,5 °C 14,4 °C 11,1 °C 79 % 1022,1 hPa 0,0 l/m² 0 min 0 W/m² 3,2 km/h (1 Bft) 95,74 %
16.04.2026 21:32 16,4 °C 14,4 °C 11,1 °C 79 % 1022,2 hPa 0,0 l/m² 0 min 0 W/m² 0,0 km/h (0 Bft) 95,92 %
16.04.2026 21:34 16,4 °C 14,4 °C 10,6 °C 79 % 1022,1 hPa 0,0 l/m² 0 min 0 W/m² 0,0 km/h (0 Bft) 97,87 %
16.04.2026 21:36 16,4 °C 14,4 °C 10,6 °C 79 % 1022,2 hPa 0,0 l/m² 0 min 0 W/m² 0,0 km/h (0 Bft) 97,87 %
16.04.2026 21:38 16,3 °C 14,4 °C 10,6 °C 79 % 1022,2 hPa 0,0 l/m² 0 min 0 W/m² 0,0 km/h (0 Bft) 97,37 %
16.04.2026 21:40 16,3 °C 14,4 °C 10,6 °C 79 % 1022,2 hPa 0,0 l/m² 0 min 0 W/m² 0,0 km/h (0 Bft) 95,74 %
16.04.2026 21:42 16,3 °C 14,4 °C 10,6 °C 79 % 1022,2 hPa 0,0 l/m² 0 min 0 W/m² 0,0 km/h (0 Bft) 97,87 %
16.04.2026 21:44 16,3 °C 13,9 °C 10,6 °C 79 % 1022,2 hPa 0,0 l/m² 0 min 0 W/m² 0,0 km/h (0 Bft) 97,87 %
16.04.2026 21:46 16,2 °C 13,9 °C 10,6 °C 79 % 1022,2 hPa 0,0 l/m² 0 min 0 W/m² 0,0 km/h (0 Bft) 97,83 %
16.04.2026 21:48 16,2 °C 13,9 °C 10,6 °C 79 % 1022,1 hPa 0,0 l/m² 0 min 0 W/m² 0,0 km/h (0 Bft) 97,87 %
16.04.2026 21:50 16,2 °C 13,9 °C 10,0 °C 79 % 1022,1 hPa 0,0 l/m² 0 min 0 W/m² 0,0 km/h (0 Bft) 95,74 %
16.04.2026 21:52 16,1 °C 13,9 °C 10,0 °C 79 % 1022,1 hPa 0,0 l/m² 0 min 0 W/m² 0,0 km/h (0 Bft) 96,00 %
16.04.2026 21:54 16,1 °C 13,9 °C 10,0 °C 79 % 1022,2 hPa 0,0 l/m² 0 min 0 W/m² 0,0 km/h (0 Bft) 97,87 %
16.04.2026 21:56 16,1 °C 13,9 °C 10,0 °C 79 % 1022,2 hPa 0,0 l/m² 0 min 0 W/m² 0,0 km/h (0 Bft) 98,00 %
16.04.2026 21:58 16,0 °C 13,9 °C 10,0 °C 80 % 1022,2 hPa 0,0 l/m² 0 min 0 W/m² 0,0 km/h (0 Bft) 98,00 %
16.04.2026 22:00 15,9 °C 13,9 °C 10,0 °C 80 % 1022,2 hPa 0,0 l/m² 0 min 0 W/m² 0,0 km/h (0 Bft) 97,37 %
16.04.2026 22:02 15,9 °C 13,9 °C 10,0 °C 80 % 1022,2 hPa 0,0 l/m² 0 min 0 W/m² 0,0 km/h (0 Bft) 91,49 %
16.04.2026 22:04 15,8 °C 13,9 °C 10,0 °C 80 % 1022,2 hPa 0,0 l/m² 0 min 0 W/m² 0,0 km/h (0 Bft) 97,83 %
16.04.2026 22:06 15,8 °C 13,3 °C 10,0 °C 80 % 1022,1 hPa 0,0 l/m² 0 min 0 W/m² 0,0 km/h (0 Bft) 98,00 %
16.04.2026 22:08 15,8 °C 13,3 °C 10,0 °C 80 % 1022,2 hPa 0,0 l/m² 0 min 0 W/m² 0,0 km/h (0 Bft) 97,87 %
16.04.2026 22:10 15,7 °C 13,3 °C 9,4 °C 80 % 1022,1 hPa 0,0 l/m² 0 min 0 W/m² 0,0 km/h (0 Bft) 97,87 %
16.04.2026 22:12 15,7 °C 13,3 °C 9,4 °C 80 % 1022,2 hPa 0,0 l/m² 0 min 0 W/m² 0,0 km/h (0 Bft) 97,87 %
16.04.2026 22:14 15,7 °C 13,3 °C 9,4 °C 80 % 1022,2 hPa 0,0 l/m² 0 min 0 W/m² 0,0 km/h (0 Bft) 97,87 %
16.04.2026 22:16 15,6 °C 13,3 °C 9,4 °C 80 % 1022,1 hPa 0,0 l/m² 0 min 0 W/m² 0,0 km/h (0 Bft) 96,00 %
16.04.2026 22:18 15,6 °C 13,3 °C 9,4 °C 80 % 1022,2 hPa 0,0 l/m² 0 min 0 W/m² 0,0 km/h (0 Bft) 95,74 %
16.04.2026 22:20 15,5 °C 13,3 °C 9,4 °C 80 % 1022,2 hPa 0,0 l/m² 0 min 0 W/m² 0,0 km/h (0 Bft) 97,83 %
16.04.2026 22:22 15,4 °C 13,3 °C 9,4 °C 80 % 1022,2 hPa 0,0 l/m² 0 min 0 W/m² 0,0 km/h (0 Bft) 97,87 %
16.04.2026 22:24 15,4 °C 13,3 °C 9,4 °C 80 % 1022,2 hPa 0,0 l/m² 0 min 0 W/m² 0,0 km/h (0 Bft) 93,62 %
16.04.2026 22:26 15,3 °C 12,8 °C 9,4 °C 80 % 1022,2 hPa 0,0 l/m² 0 min 0 W/m² 0,0 km/h (0 Bft) 98,00 %
16.04.2026 22:28 15,3 °C 12,8 °C 9,4 °C 80 % 1022,2 hPa 0,0 l/m² 0 min 0 W/m² 0,0 km/h (0 Bft) 95,74 %
16.04.2026 22:30 15,2 °C 12,8 °C 9,4 °C 81 % 1022,1 hPa 0,0 l/m² 0 min 0 W/m² 0,0 km/h (0 Bft) 97,87 %
16.04.2026 22:32 15,2 °C 12,8 °C 9,4 °C 81 % 1022,2 hPa 0,0 l/m² 0 min 0 W/m² 0,0 km/h (0 Bft) 97,87 %
16.04.2026 22:34 15,1 °C 12,8 °C 9,4 °C 81 % 1022,2 hPa 0,0 l/m² 0 min 0 W/m² 0,0 km/h (0 Bft) 95,65 %
16.04.2026 22:36 15,1 °C 12,8 °C 9,4 °C 81 % 1022,2 hPa 0,0 l/m² 0 min 0 W/m² 0,0 km/h (0 Bft) 97,87 %
16.04.2026 22:38 15,0 °C 12,8 °C 9,4 °C 81 % 1022,2 hPa 0,0 l/m² 0 min 0 W/m² 0,0 km/h (0 Bft) 93,62 %
16.04.2026 22:40 15,0 °C 12,8 °C 9,4 °C 81 % 1022,3 hPa 0,0 l/m² 0 min 0 W/m² 3,2 km/h (1 Bft) 93,62 %
16.04.2026 22:42 14,8 °C 12,8 °C 9,4 °C 81 % 1022,3 hPa 0,0 l/m² 0 min 0 W/m² 3,2 km/h (1 Bft) 95,74 %
16.04.2026 22:44 14,7 °C 12,8 °C 9,4 °C 82 % 1022,3 hPa 0,0 l/m² 0 min 0 W/m² 0,0 km/h (0 Bft) 95,74 %
16.04.2026 22:46 14,6 °C 13,3 °C 9,4 °C 82 % 1022,3 hPa 0,0 l/m² 0 min 0 W/m² 3,2 km/h (1 Bft) 95,74 %
16.04.2026 22:48 14,6 °C 13,3 °C 9,4 °C 82 % 1022,4 hPa 0,0 l/m² 0 min 0 W/m² 6,4 km/h (2 Bft) 95,74 %
16.04.2026 22:50 14,5 °C 13,3 °C 9,4 °C 82 % 1022,4 hPa 0,0 l/m² 0 min 0 W/m² 3,2 km/h (1 Bft) 95,74 %
16.04.2026 22:52 14,4 °C 13,3 °C 9,4 °C 82 % 1022,4 hPa 0,0 l/m² 0 min 0 W/m² 0,0 km/h (0 Bft) 97,83 %
16.04.2026 22:54 14,4 °C 13,3 °C 9,4 °C 82 % 1022,4 hPa 0,0 l/m² 0 min 0 W/m² 0,0 km/h (0 Bft) 93,62 %
16.04.2026 22:56 14,3 °C 13,3 °C 9,4 °C 82 % 1022,4 hPa 0,0 l/m² 0 min 0 W/m² 3,2 km/h (1 Bft) 95,74 %
16.04.2026 22:58 14,3 °C 13,3 °C 9,4 °C 82 % 1022,4 hPa 0,0 l/m² 0 min 0 W/m² 0,0 km/h (0 Bft) 97,87 %
16.04.2026 23:00 14,3 °C 13,3 °C 9,4 °C 82 % 1022,4 hPa 0,0 l/m² 0 min 0 W/m² 0,0 km/h (0 Bft) 95,74 %
16.04.2026 23:02 14,3 °C 13,3 °C 9,4 °C 82 % 1022,5 hPa 0,0 l/m² 0 min 0 W/m² 0,0 km/h (0 Bft) 95,74 %
16.04.2026 23:04 14,3 °C 13,3 °C 9,4 °C 82 % 1022,5 hPa 0,0 l/m² 0 min 0 W/m² 0,0 km/h (0 Bft) 95,74 %
16.04.2026 23:06 14,3 °C 13,3 °C 9,4 °C 82 % 1022,5 hPa 0,0 l/m² 0 min 0 W/m² 0,0 km/h (0 Bft) 93,62 %
16.04.2026 23:08 14,3 °C 13,3 °C 9,4 °C 82 % 1022,4 hPa 0,0 l/m² 0 min 0 W/m² 3,2 km/h (1 Bft) 95,74 %
16.04.2026 23:10 14,3 °C 12,8 °C 9,4 °C 82 % 1022,4 hPa 0,0 l/m² 0 min 0 W/m² 0,0 km/h (0 Bft) 94,74 %
16.04.2026 23:12 14,3 °C 12,8 °C 9,4 °C 82 % 1022,4 hPa 0,0 l/m² 0 min 0 W/m² 0,0 km/h (0 Bft) 93,48 %
16.04.2026 23:14 14,3 °C 12,8 °C 9,4 °C 82 % 1022,4 hPa 0,0 l/m² 0 min 0 W/m² 0,0 km/h (0 Bft) 95,74 %
16.04.2026 23:16 14,3 °C 12,8 °C 9,4 °C 82 % 1022,4 hPa 0,0 l/m² 0 min 0 W/m² 0,0 km/h (0 Bft) 97,87 %
16.04.2026 23:18 14,3 °C 12,8 °C 9,4 °C 82 % 1022,4 hPa 0,0 l/m² 0 min 0 W/m² 0,0 km/h (0 Bft) 97,87 %
16.04.2026 23:20 14,3 °C 12,8 °C 9,4 °C 83 % 1022,4 hPa 0,0 l/m² 0 min 0 W/m² 0,0 km/h (0 Bft) 98,15 %
16.04.2026 23:22 14,3 °C 12,8 °C 9,4 °C 83 % 1022,4 hPa 0,0 l/m² 0 min 0 W/m² 3,2 km/h (1 Bft) 97,87 %
16.04.2026 23:24 14,2 °C 12,8 °C 9,4 °C 83 % 1022,4 hPa 0,0 l/m² 0 min 0 W/m² 0,0 km/h (0 Bft) 97,87 %
16.04.2026 23:26 14,2 °C 12,8 °C 9,4 °C 83 % 1022,4 hPa 0,0 l/m² 0 min 0 W/m² 0,0 km/h (0 Bft) 97,83 %
16.04.2026 23:28 14,2 °C 12,8 °C 9,4 °C 83 % 1022,4 hPa 0,0 l/m² 0 min 0 W/m² 0,0 km/h (0 Bft) 97,87 %
16.04.2026 23:30 14,2 °C 12,8 °C 9,4 °C 83 % 1022,4 hPa 0,0 l/m² 0 min 0 W/m² 0,0 km/h (0 Bft) 97,14 %
16.04.2026 23:32 14,2 °C 12,8 °C 9,4 °C 83 % 1022,4 hPa 0,0 l/m² 0 min 0 W/m² 0,0 km/h (0 Bft) 98,11 %
16.04.2026 23:34 14,1 °C 12,8 °C 9,4 °C 83 % 1022,4 hPa 0,0 l/m² 0 min 0 W/m² 0,0 km/h (0 Bft) 97,87 %
16.04.2026 23:36 14,1 °C 12,8 °C 9,4 °C 83 % 1022,4 hPa 0,0 l/m² 0 min 0 W/m² 3,2 km/h (1 Bft) 97,87 %
16.04.2026 23:38 14,1 °C 12,8 °C 9,4 °C 83 % 1022,4 hPa 0,0 l/m² 0 min 0 W/m² 0,0 km/h (0 Bft) 97,87 %
16.04.2026 23:40 14,1 °C 12,8 °C 9,4 °C 83 % 1022,4 hPa 0,0 l/m² 0 min 0 W/m² 0,0 km/h (0 Bft) 98,00 %
16.04.2026 23:42 14,1 °C 12,8 °C 9,4 °C 83 % 1022,4 hPa 0,0 l/m² 0 min 0 W/m² 0,0 km/h (0 Bft) 100,00 %
16.04.2026 23:44 14,1 °C 12,8 °C 9,4 °C 83 % 1022,4 hPa 0,0 l/m² 0 min 0 W/m² 6,4 km/h (2 Bft) 100,00 %
16.04.2026 23:46 14,0 °C 13,3 °C 9,4 °C 83 % 1022,4 hPa 0,0 l/m² 0 min 0 W/m² 0,0 km/h (0 Bft) 100,00 %
16.04.2026 23:48 14,0 °C 13,3 °C 9,4 °C 83 % 1022,4 hPa 0,0 l/m² 0 min 0 W/m² 3,2 km/h (1 Bft) 100,00 %
16.04.2026 23:50 13,9 °C 13,3 °C 9,4 °C 83 % 1022,4 hPa 0,0 l/m² 0 min 0 W/m² 0,0 km/h (0 Bft) 98,00 %
16.04.2026 23:52 13,9 °C 13,3 °C 9,4 °C 82 % 1022,4 hPa 0,0 l/m² 0 min 0 W/m² 3,2 km/h (1 Bft) 100,00 %
16.04.2026 23:54 13,9 °C 13,3 °C 9,4 °C 82 % 1022,4 hPa 0,0 l/m² 0 min 0 W/m² 0,0 km/h (0 Bft) 97,87 %
16.04.2026 23:56 13,9 °C 13,3 °C 9,4 °C 82 % 1022,4 hPa 0,0 l/m² 0 min 0 W/m² 0,0 km/h (0 Bft) 100,00 %
16.04.2026 23:58 13,9 °C 13,3 °C 9,4 °C 82 % 1022,4 hPa 0,0 l/m² 0 min 0 W/m² 0,0 km/h (0 Bft) 100,00 %
_ Min-Zeit 07:18 06:34 06:34 18:02 00:04 - - - 00:30 00:34
Minimum _ 12,0 °C 11,1 °C 6,7 °C 58 % 1019,5 hPa - - - 0,0 km/h (0 Bft) 51,11 %
_ Max-Zeit 18:02 15:20 12:16 09:26 23:02 06:28 09:20 15:20 13:32 00:36
Maximum _ 21,3 °C 26,7 °C 18,9 °C 96 % 1022,5 hPa 0,2 l/m² 2 min 840 W/m² 19,3 km/h
N (3 Bft)
100,00 %
Durchschnitt _ 15,9 °C 16,4 °C 11,6 °C 74 % 1021,2 hPa #1,2 l/m² #6:05 h 299 W/m² 4,7 km/h (1 Bft) 97,30 %
© 2026 W. Hausmann